Observation data for Adrian on 02/13/2018      Previous  Date  Next       Current Mesonet Observations  Soil Data  Daily Summary Page  Observations in Plain Language
KAD1 130600Z 16014KT M02/M12 A3021 RMK A01 T10191117  RH  047%=      5-min Rain = 0
KAD1 130601Z 16014KT M02/M12 A3021 RMK A01 T10201117  RH  048%=      5-min Rain = 0
KAD1 130602Z 16015KT M02/M12 A3021 RMK A01 T10201117  RH  048%=      5-min Rain = 0
KAD1 130603Z 16016KT M02/M12 A3021 RMK A01 T10211117  RH  048%=      5-min Rain = 0
KAD1 130604Z 16015KT M02/M12 A3021 RMK A01 T10211117  RH  048%=      5-min Rain = 0
KAD1 130605Z 16015KT M02/M12 A3021 RMK A01 T10211117  RH  048%=      5-min Rain = 0
KAD1 130606Z 16014KT M02/M12 A3021 RMK A01 T10211117  RH  048%=      5-min Rain = 0
KAD1 130607Z 16014KT M02/M12 A3021 RMK A01 T10221118  RH  048%=      5-min Rain = 0
KAD1 130608Z 16015KT M02/M12 A3021 RMK A01 T10231118  RH  048%=      5-min Rain = 0
KAD1 130609Z 16016KT M02/M12 A3021 RMK A01 T10231117  RH  048%=      5-min Rain = 0
KAD1 130610Z 17015KT M02/M12 A3021 RMK A01 T10221117  RH  048%=      5-min Rain = 0
KAD1 130611Z 16015KT M02/M12 A3021 RMK A01 T10221117  RH  048%=      5-min Rain = 0
KAD1 130612Z 16015KT M02/M12 A3021 RMK A01 T10231117  RH  048%=      5-min Rain = 0
KAD1 130613Z 16016KT M02/M12 A3021 RMK A01 T10231118  RH  048%=      5-min Rain = 0
KAD1 130614Z 16015KT M02/M12 A3021 RMK A01 T10241117  RH  049%=      5-min Rain = 0
KAD1 130615Z 16015KT M02/M12 A3021 RMK A01 T10241117  RH  049%=      5-min Rain = 0
KAD1 130616Z 16015KT M02/M12 A3021 RMK A01 T10241117  RH  049%=      5-min Rain = 0
KAD1 130617Z 16015KT M02/M12 A3021 RMK A01 T10241117  RH  049%=      5-min Rain = 0
KAD1 130618Z 16016KT M02/M12 A3021 RMK A01 T10241117  RH  049%=      5-min Rain = 0
KAD1 130619Z 16016KT M03/M12 A3021 RMK A01 T10251117  RH  049%=      5-min Rain = 0
KAD1 130620Z 15016KT M03/M12 A3021 RMK A01 T10251117  RH  049%=      5-min Rain = 0
KAD1 130621Z 16017KT M03/M12 A3021 RMK A01 T10251117  RH  049%=      5-min Rain = 0
KAD1 130622Z 16017KT M03/M12 A3021 RMK A01 T10251117  RH  049%=      5-min Rain = 0
KAD1 130623Z 16017KT M03/M12 A3021 RMK A01 T10251117  RH  049%=      5-min Rain = 0
KAD1 130624Z 16017KT M03/M12 A3021 RMK A01 T10261117  RH  049%=      5-min Rain = 0
KAD1 130625Z 16017KT M03/M12 A302 RMK A01 T10251117  RH  049%=      5-min Rain = 0
KAD1 130626Z 16016KT M03/M12 A3021 RMK A01 T10261117  RH  049%=      5-min Rain = 0
KAD1 130627Z 16016KT M03/M12 A3021 RMK A01 T10261117  RH  050%=      5-min Rain = 0
KAD1 130628Z 16016KT M03/M12 A3021 RMK A01 T10261117  RH  050%=      5-min Rain = 0
KAD1 130629Z 16016KT M03/M12 A302 RMK A01 T10261117  RH  050%=      5-min Rain = 0
KAD1 130630Z 16017KT M03/M12 A302 RMK A01 T10261117  RH  050%=      5-min Rain = 0
KAD1 130631Z 16017KT M03/M12 A302 RMK A01 T10271117  RH  050%=      5-min Rain = 0
KAD1 130632Z 16017KT M03/M12 A302 RMK A01 T10261117  RH  050%=      5-min Rain = 0
KAD1 130633Z 16018KT M03/M12 A302 RMK A01 T10261117  RH  050%=      5-min Rain = 0
KAD1 130634Z 16017KT M03/M12 A302 RMK A01 T10261117  RH  050%=      5-min Rain = 0
KAD1 130635Z 16017KT M03/M12 A302 RMK A01 T10261117  RH  050%=      5-min Rain = 0
KAD1 130636Z 16017KT M03/M12 A302 RMK A01 T10271117  RH  050%=      5-min Rain = 0
KAD1 130637Z 16017KT M03/M12 A302 RMK A01 T10271117  RH  050%=      5-min Rain = 0
KAD1 130638Z 16017KT M03/M12 A302 RMK A01 T10281117  RH  050%=      5-min Rain = 0
KAD1 130639Z 16018KT M03/M12 A302 RMK A01 T10281117  RH  050%=      5-min Rain = 0
KAD1 130640Z 16018KT M03/M12 A302 RMK A01 T10281117  RH  050%=      5-min Rain = 0
KAD1 130641Z 16018KT M03/M12 A302 RMK A01 T10271117  RH  050%=      5-min Rain = 0
KAD1 130642Z 16018KT M03/M12 A302 RMK A01 T10271117  RH  050%=      5-min Rain = 0
KAD1 130643Z 17018KT M03/M12 A302 RMK A01 T10271116  RH  050%=      5-min Rain = 0
KAD1 130644Z 16018KT M03/M12 A302 RMK A01 T10271116  RH  050%=      5-min Rain = 0
KAD1 130645Z 17017KT M03/M12 A302 RMK A01 T10271116  RH  050%=      5-min Rain = 0
KAD1 130646Z 17016KT M03/M12 A302 RMK A01 T10271116  RH  050%=      5-min Rain = 0
KAD1 130647Z 17017KT M03/M12 A302 RMK A01 T10271116  RH  050%=      5-min Rain = 0
KAD1 130648Z 17016KT M03/M12 A302 RMK A01 T10271116  RH  050%=      5-min Rain = 0
KAD1 130649Z 17016KT M03/M12 A302 RMK A01 T10261116  RH  050%=      5-min Rain = 0
KAD1 130650Z 17017KT M03/M12 A302 RMK A01 T10261116  RH  050%=      5-min Rain = 0
KAD1 130651Z 17017KT M03/M12 A302 RMK A01 T10261116  RH  050%=      5-min Rain = 0
KAD1 130652Z 17017KT M03/M12 A302 RMK A01 T10261116  RH  050%=      5-min Rain = 0
KAD1 130653Z 17018KT M03/M12 A302 RMK A01 T10271116  RH  050%=      5-min Rain = 0
KAD1 130654Z 17016KT M03/M12 A302 RMK A01 T10261116  RH  050%=      5-min Rain = 0
KAD1 130655Z 17017KT M03/M12 A302 RMK A01 T10261116  RH  050%=      5-min Rain = 0
KAD1 130656Z 17018KT M03/M12 A302 RMK A01 T10261116  RH  050%=      5-min Rain = 0
KAD1 130657Z 17017KT M03/M12 A302 RMK A01 T10261116  RH  050%=      5-min Rain = 0
KAD1 130658Z 17017KT M03/M12 A302 RMK A01 T10271116  RH  050%=      5-min Rain = 0
KAD1 130659Z 17017KT M03/M12 A302 RMK A01 T10261116  RH  050%=      5-min Rain = 0
KAD1 130700Z 17018KT M03/M12 A302 RMK A01 T10271116  RH  050%=      5-min Rain = 0
KAD1 130701Z 17018KT M03/M12 A302 RMK A01 T10271116  RH  050%=      5-min Rain = 0
KAD1 130702Z 17018KT M03/M12 A3021 RMK A01 T10271116  RH  050%=      5-min Rain = 0
KAD1 130703Z 17017KT M03/M12 A3021 RMK A01 T10271116  RH  050%=      5-min Rain = 0
KAD1 130704Z 17017KT M03/M12 A3021 RMK A01 T10271116  RH  050%=      5-min Rain = 0
KAD1 130705Z 17016KT M03/M12 A3021 RMK A01 T10271116  RH  050%=      5-min Rain = 0
KAD1 130706Z 17016KT M03/M12 A3021 RMK A01 T10281116  RH  050%=      5-min Rain = 0
KAD1 130707Z 17015KT M03/M12 A3021 RMK A01 T10281116  RH  051%=      5-min Rain = 0
KAD1 130708Z 17017KT M03/M12 A3021 RMK A01 T10281116  RH  051%=      5-min Rain = 0
KAD1 130709Z 17017KT M03/M12 A3021 RMK A01 T10281116  RH  051%=      5-min Rain = 0
KAD1 130710Z 17016KT M03/M12 A3021 RMK A01 T10281116  RH  051%=      5-min Rain = 0
KAD1 130711Z 17016KT M03/M12 A302 RMK A01 T10291117  RH  051%=      5-min Rain = 0
KAD1 130712Z 17017KT M03/M12 A302 RMK A01 T10291116  RH  051%=      5-min Rain = 0
KAD1 130713Z 17016KT M03/M12 A302 RMK A01 T10291116  RH  051%=      5-min Rain = 0
KAD1 130714Z 17018KT M03/M12 A3021 RMK A01 T10291116  RH  051%=      5-min Rain = 0
KAD1 130715Z 17018KT M03/M12 A3021 RMK A01 T10281116  RH  051%=      5-min Rain = 0
KAD1 130716Z 17017KT M03/M12 A3021 RMK A01 T10281116  RH  051%=      5-min Rain = 0
KAD1 130717Z 17017KT M03/M12 A3021 RMK A01 T10281116  RH  051%=      5-min Rain = 0
KAD1 130718Z 17017KT M03/M12 A3021 RMK A01 T10281116  RH  051%=      5-min Rain = 0
KAD1 130719Z 17017KT M03/M12 A3021 RMK A01 T10281116  RH  051%=      5-min Rain = 0
KAD1 130720Z 17018KT M03/M12 A3021 RMK A01 T10281116  RH  051%=      5-min Rain = 0
KAD1 130721Z 17017KT M03/M12 A3021 RMK A01 T10281116  RH  051%=      5-min Rain = 0
KAD1 130722Z 17018KT M03/M12 A3021 RMK A01 T10281116  RH  051%=      5-min Rain = 0
KAD1 130723Z 17018KT M03/M12 A3021 RMK A01 T10281116  RH  051%=      5-min Rain = 0
KAD1 130724Z 17017KT M03/M12 A3021 RMK A01 T10281116  RH  051%=      5-min Rain = 0
KAD1 130725Z 17017KT M03/M12 A3021 RMK A01 T10281116  RH  051%=      5-min Rain = 0
KAD1 130726Z 17019KT M03/M12 A3021 RMK A01 T10281116  RH  051%=      5-min Rain = 0
KAD1 130727Z 17019KT M03/M12 A3021 RMK A01 T10281116  RH  051%=      5-min Rain = 0
KAD1 130728Z 17019KT M03/M12 A3021 RMK A01 T10271115  RH  051%=      5-min Rain = 0
KAD1 130729Z 17019KT M03/M12 A3021 RMK A01 T10281116  RH  051%=      5-min Rain = 0
KAD1 130730Z 17019KT M03/M12 A3021 RMK A01 T10281116  RH  051%=      5-min Rain = 0
KAD1 130731Z 17019KT M03/M12 A3021 RMK A01 T10271115  RH  051%=      5-min Rain = 0
KAD1 130732Z 17019KT M03/M12 A3021 RMK A01 T10271115  RH  051%=      5-min Rain = 0
KAD1 130733Z 17019KT M03/M12 A3021 RMK A01 T10271116  RH  051%=      5-min Rain = 0
KAD1 130734Z 17019KT M03/M12 A3021 RMK A01 T10281116  RH  051%=      5-min Rain = 0
KAD1 130735Z 17020KT M03/M12 A3021 RMK A01 T10281116  RH  051%=      5-min Rain = 0
KAD1 130736Z 17019KT M03/M12 A3021 RMK A01 T10281116  RH  051%=      5-min Rain = 0
KAD1 130737Z 17019KT M03/M12 A3021 RMK A01 T10281116  RH  051%=      5-min Rain = 0
KAD1 130738Z 17019KT M03/M12 A3021 RMK A01 T10281116  RH  051%=      5-min Rain = 0
KAD1 130739Z 17019KT M03/M12 A3021 RMK A01 T10291116  RH  051%=      5-min Rain = 0
KAD1 130740Z 17018KT M03/M12 A3021 RMK A01 T10291116  RH  051%=      5-min Rain = 0
KAD1 130741Z 17018KT M03/M12 A3021 RMK A01 T10291116  RH  051%=      5-min Rain = 0
KAD1 130742Z 17018KT M03/M12 A3021 RMK A01 T10291116  RH  051%=      5-min Rain = 0
KAD1 130743Z 17017KT M03/M12 A3021 RMK A01 T10291117  RH  051%=      5-min Rain = 0
KAD1 130744Z 17017KT M03/M12 A3021 RMK A01 T10301117  RH  051%=      5-min Rain = 0
KAD1 130745Z 17016KT M03/M12 A3021 RMK A01 T10301117  RH  051%=      5-min Rain = 0
KAD1 130746Z 17017KT M03/M12 A3021 RMK A01 T10311117  RH  051%=      5-min Rain = 0
KAD1 130747Z 17017KT M03/M12 A3021 RMK A01 T10311117  RH  052%=      5-min Rain = 0
KAD1 130748Z 17017KT M03/M12 A3021 RMK A01 T10311117  RH  052%=      5-min Rain = 0
KAD1 130749Z 17017KT M03/M12 A3021 RMK A01 T10311116  RH  052%=      5-min Rain = 0
KAD1 130750Z 16016KT M03/M12 A3021 RMK A01 T10311116  RH  052%=      5-min Rain = 0
KAD1 130751Z 16016KT M03/M12 A3021 RMK A01 T10311116  RH  052%=      5-min Rain = 0
KAD1 130752Z 16015KT M03/M12 A3022 RMK A01 T10311116  RH  052%=      5-min Rain = 0
KAD1 130753Z 16014KT M03/M12 A3022 RMK A01 T10321117  RH  052%=      5-min Rain = 0
KAD1 130754Z 16015KT M03/M12 A3022 RMK A01 T10321117  RH  052%=      5-min Rain = 0
KAD1 130755Z 16015KT M03/M12 A3022 RMK A01 T10331117  RH  052%=      5-min Rain = 0
KAD1 130756Z 16015KT M03/M12 A3022 RMK A01 T10331117  RH  052%=      5-min Rain = 0
KAD1 130757Z 16015KT M03/M12 A3022 RMK A01 T10341117  RH  052%=      5-min Rain = 0
KAD1 130758Z 16015KT M03/M12 A3022 RMK A01 T10341118  RH  053%=      5-min Rain = 0
KAD1 130759Z 16014KT M04/M12 A3022 RMK A01 T10351118  RH  053%=      5-min Rain = 0
KAD1 130800Z 16013KT M04/M12 A3022 RMK A01 T10361118  RH  053%=      5-min Rain = 0
KAD1 130801Z 16014KT M04/M12 A3022 RMK A01 T10361118  RH  053%=      5-min Rain = 0
KAD1 130802Z 16014KT M04/M12 A3022 RMK A01 T10361118  RH  053%=      5-min Rain = 0
KAD1 130803Z 16014KT M04/M12 A3022 RMK A01 T10361117  RH  053%=      5-min Rain = 0
KAD1 130804Z 16013KT M04/M12 A3022 RMK A01 T10371118  RH  053%=      5-min Rain = 0
KAD1 130805Z 16014KT M04/M12 A3022 RMK A01 T10371117  RH  054%=      5-min Rain = 0
KAD1 130806Z 16014KT M04/M12 A3022 RMK A01 T10371117  RH  054%=      5-min Rain = 0
KAD1 130807Z 16014KT M04/M12 A3022 RMK A01 T10371117  RH  054%=      5-min Rain = 0
KAD1 130808Z 16013KT M04/M12 A3022 RMK A01 T10381118  RH  054%=      5-min Rain = 0
KAD1 130809Z 16013KT M04/M12 A3022 RMK A01 T10381118  RH  054%=      5-min Rain = 0
KAD1 130810Z 16015KT M04/M12 A3022 RMK A01 T10381118  RH  054%=      5-min Rain = 0
KAD1 130811Z 16015KT M04/M12 A3022 RMK A01 T10381118  RH  054%=      5-min Rain = 0
KAD1 130812Z 16014KT M04/M12 A3022 RMK A01 T10381118  RH  054%=      5-min Rain = 0
KAD1 130813Z 16014KT M04/M12 A3022 RMK A01 T10371117  RH  054%=      5-min Rain = 0
KAD1 130814Z 16014KT M04/M12 A3022 RMK A01 T10371118  RH  054%=      5-min Rain = 0
KAD1 130815Z 16013KT M04/M12 A3022 RMK A01 T10371118  RH  054%=      5-min Rain = 0
KAD1 130816Z 16012KT M04/M12 A3022 RMK A01 T10371118  RH  054%=      5-min Rain = 0
KAD1 130817Z 16012KT M04/M12 A3022 RMK A01 T10371118  RH  054%=      5-min Rain = 0
KAD1 130818Z 17011KT M04/M12 A3022 RMK A01 T10371118  RH  054%=      5-min Rain = 0
KAD1 130819Z 17011KT M04/M12 A3022 RMK A01 T10381118  RH  054%=      5-min Rain = 0
KAD1 130820Z 17012KT M04/M12 A3022 RMK A01 T10381118  RH  054%=      5-min Rain = 0
KAD1 130821Z 17012KT M04/M12 A3022 RMK A01 T10381118  RH  054%=      5-min Rain = 0
KAD1 130822Z 17012KT M04/M12 A3022 RMK A01 T10381118  RH  054%=      5-min Rain = 0
KAD1 130823Z 17012KT M04/M12 A3022 RMK A01 T10381118  RH  054%=      5-min Rain = 0
KAD1 130824Z 17012KT M04/M12 A3022 RMK A01 T10381118  RH  054%=      5-min Rain = 0
KAD1 130825Z 17012KT M04/M12 A3022 RMK A01 T10381118  RH  054%=      5-min Rain = 0
KAD1 130826Z 17012KT M04/M12 A3022 RMK A01 T10381118  RH  054%=      5-min Rain = 0
KAD1 130827Z 17012KT M04/M12 A3022 RMK A01 T10381118  RH  054%=      5-min Rain = 0
KAD1 130828Z 17012KT M04/M12 A3022 RMK A01 T10381118  RH  054%=      5-min Rain = 0
KAD1 130829Z 18011KT M04/M12 A3022 RMK A01 T10371117  RH  054%=      5-min Rain = 0
KAD1 130830Z 18012KT M04/M12 A3022 RMK A01 T10371117  RH  054%=      5-min Rain = 0
KAD1 130831Z 18014KT M04/M12 A3022 RMK A01 T10371118  RH  054%=      5-min Rain = 0
KAD1 130832Z 18013KT M04/M12 A3022 RMK A01 T10371117  RH  054%=      5-min Rain = 0
KAD1 130833Z 18013KT M04/M12 A3022 RMK A01 T10361117  RH  054%=      5-min Rain = 0
KAD1 130834Z 18012KT M04/M12 A3022 RMK A01 T10361117  RH  053%=      5-min Rain = 0
KAD1 130835Z 18012KT M04/M12 A3022 RMK A01 T10371117  RH  054%=      5-min Rain = 0
KAD1 130836Z 18011KT M04/M12 A3022 RMK A01 T10381118  RH  054%=      5-min Rain = 0
KAD1 130837Z 18010KT M04/M12 A3022 RMK A01 T10381118  RH  054%=      5-min Rain = 0
KAD1 130838Z 19010KT M04/M12 A3022 RMK A01 T10391119  RH  054%=      5-min Rain = 0
KAD1 130839Z 19009KT M04/M12 A3022 RMK A01 T10401119  RH  054%=      5-min Rain = 0
KAD1 130840Z 19008KT M04/M12 A3022 RMK A01 T10411119  RH  054%=      5-min Rain = 0
KAD1 130841Z 19007KT M04/M12 A3022 RMK A01 T10411119  RH  055%=      5-min Rain = 0
KAD1 130842Z 19007KT M04/M12 A3022 RMK A01 T10421119  RH  055%=      5-min Rain = 0
KAD1 130843Z 19007KT M04/M12 A3022 RMK A01 T10431119  RH  055%=      5-min Rain = 0
KAD1 130844Z 20006KT M04/M12 A3022 RMK A01 T10441119  RH  056%=      5-min Rain = 0
KAD1 130845Z 20006KT M05/M12 A3022 RMK A01 T10451120  RH  056%=      5-min Rain = 0
KAD1 130846Z 21005KT M05/M12 A3022 RMK A01 T10461120  RH  056%=      5-min Rain = 0
KAD1 130847Z 21007KT M05/M12 A3022 RMK A01 T10471120  RH  057%=      5-min Rain = 0
KAD1 130848Z 21005KT M05/M12 A3022 RMK A01 T10481120  RH  057%=      5-min Rain = 0
KAD1 130849Z 21006KT M05/M12 A3022 RMK A01 T10481120  RH  057%=      5-min Rain = 0
KAD1 130850Z 21006KT M05/M12 A3022 RMK A01 T10491119  RH  058%=      5-min Rain = 0
KAD1 130851Z 21005KT M05/M12 A3022 RMK A01 T10491119  RH  058%=      5-min Rain = 0
KAD1 130852Z 21005KT M05/M12 A3022 RMK A01 T10491119  RH  058%=      5-min Rain = 0
KAD1 130853Z 21005KT M05/M12 A3022 RMK A01 T10491119  RH  058%=      5-min Rain = 0
KAD1 130854Z 19005KT M05/M12 A3022 RMK A01 T10501120  RH  058%=      5-min Rain = 0
KAD1 130855Z 19005KT M05/M12 A3022 RMK A01 T10501120  RH  058%=      5-min Rain = 0
KAD1 130856Z 19007KT M05/M12 A3022 RMK A01 T10511120  RH  058%=      5-min Rain = 0
KAD1 130857Z 19007KT M05/M12 A3022 RMK A01 T10511120  RH  058%=      5-min Rain = 0
KAD1 130858Z 19006KT M05/M12 A3022 RMK A01 T10511120  RH  059%=      5-min Rain = 0
KAD1 130859Z 19007KT M05/M12 A3022 RMK A01 T10511120  RH  059%=      5-min Rain = 0
KAD1 130900Z 19006KT M05/M12 A3022 RMK A01 T10511120  RH  059%=      5-min Rain = 0
KAD1 130901Z 20005KT M05/M12 A3022 RMK A01 T10501119  RH  059%=      5-min Rain = 0
KAD1 130902Z 20006KT M05/M12 A3022 RMK A01 T10501119  RH  059%=      5-min Rain = 0
KAD1 130903Z 21004KT M05/M12 A3022 RMK A01 T10501119  RH  059%=      5-min Rain = 0
KAD1 130904Z 20004KT M05/M12 A3022 RMK A01 T10501119  RH  059%=      5-min Rain = 0
KAD1 130905Z 21004KT M05/M12 A3022 RMK A01 T10501119  RH  059%=      5-min Rain = 0
KAD1 130906Z 21005KT M05/M12 A3022 RMK A01 T10501119  RH  059%=      5-min Rain = 0
KAD1 130907Z 22005KT M05/M12 A3022 RMK A01 T10521120  RH  059%=      5-min Rain = 0
KAD1 130908Z 21006KT M05/M12 A3022 RMK A01 T10521120  RH  059%=      5-min Rain = 0
KAD1 130909Z 21005KT M05/M12 A3022 RMK A01 T10521119  RH  059%=      5-min Rain = 0
KAD1 130910Z 20006KT M05/M12 A3022 RMK A01 T10521119  RH  059%=      5-min Rain = 0
KAD1 130911Z 20007KT M05/M12 A3021 RMK A01 T10521119  RH  059%=      5-min Rain = 0
KAD1 130912Z 19007KT M05/M12 A3021 RMK A01 T10521119  RH  059%=      5-min Rain = 0
KAD1 130913Z 19008KT M05/M12 A3021 RMK A01 T10521119  RH  059%=      5-min Rain = 0
KAD1 130914Z 19008KT M05/M12 A3021 RMK A01 T10521119  RH  059%=      5-min Rain = 0
KAD1 130915Z 18009KT M05/M12 A3021 RMK A01 T10521120  RH  059%=      5-min Rain = 0
KAD1 130916Z 18009KT M05/M12 A3021 RMK A01 T10521121  RH  059%=      5-min Rain = 0
KAD1 130917Z 18010KT M05/M12 A3021 RMK A01 T10521121  RH  059%=      5-min Rain = 0
KAD1 130918Z 18010KT M05/M12 A3021 RMK A01 T10521121  RH  059%=      5-min Rain = 0
KAD1 130919Z 18009KT M05/M12 A3021 RMK A01 T10521121  RH  058%=      5-min Rain = 0
KAD1 130920Z 18010KT M05/M12 A3021 RMK A01 T10521121  RH  058%=      5-min Rain = 0
KAD1 130921Z 18010KT M05/M12 A3021 RMK A01 T10521121  RH  058%=      5-min Rain = 0
KAD1 130922Z 18010KT M05/M12 A3021 RMK A01 T10511121  RH  058%=      5-min Rain = 0
KAD1 130923Z 18010KT M05/M12 A3021 RMK A01 T10511121  RH  058%=      5-min Rain = 0
KAD1 130924Z 18010KT M05/M12 A3021 RMK A01 T10511121  RH  058%=      5-min Rain = 0
KAD1 130925Z 18010KT M05/M12 A3021 RMK A01 T10511122  RH  058%=      5-min Rain = 0
KAD1 130926Z 19010KT M05/M12 A3021 RMK A01 T10511121  RH  058%=      5-min Rain = 0
KAD1 130927Z 18011KT M05/M12 A3021 RMK A01 T10511121  RH  058%=      5-min Rain = 0
KAD1 130928Z 18011KT M05/M12 A302 RMK A01 T10501121  RH  058%=      5-min Rain = 0
KAD1 130929Z 18011KT M05/M12 A302 RMK A01 T10491120  RH  058%=      5-min Rain = 0
KAD1 130930Z 18012KT M05/M12 A302 RMK A01 T10481119  RH  057%=      5-min Rain = 0
KAD1 130931Z 18012KT M05/M12 A302 RMK A01 T10471119  RH  057%=      5-min Rain = 0
KAD1 130932Z 18012KT M05/M12 A302 RMK A01 T10461118  RH  057%=      5-min Rain = 0
KAD1 130933Z 18014KT M05/M12 A302 RMK A01 T10451118  RH  057%=      5-min Rain = 0
KAD1 130934Z 18013KT M04/M12 A302 RMK A01 T10441117  RH  057%=      5-min Rain = 0
KAD1 130935Z 18013KT M04/M12 A302 RMK A01 T10441117  RH  056%=      5-min Rain = 0
KAD1 130936Z 18014KT M04/M12 A302 RMK A01 T10431117  RH  056%=      5-min Rain = 0
KAD1 130937Z 18016KT M04/M12 A302 RMK A01 T10431117  RH  056%=      5-min Rain = 0
KAD1 130938Z 18016KT M04/M12 A302 RMK A01 T10411115  RH  056%=      5-min Rain = 0
KAD1 130939Z 18015KT M04/M12 A302 RMK A01 T10401115  RH  056%=      5-min Rain = 0
KAD1 130940Z 18015KT M04/M12 A302 RMK A01 T10401116  RH  056%=      5-min Rain = 0
KAD1 130941Z 18015KT M04/M12 A302 RMK A01 T10401116  RH  056%=      5-min Rain = 0
KAD1 130942Z 18016KT M04/M12 A302 RMK A01 T10401116  RH  056%=      5-min Rain = 0
KAD1 130943Z 18016KT M04/M11 A302 RMK A01 T10391114  RH  056%=      5-min Rain = 0
KAD1 130944Z 18018KT M04/M11 A302 RMK A01 T10381114  RH  056%=      5-min Rain = 0
KAD1 130945Z 18018KT M04/M11 A302 RMK A01 T10371113  RH  055%=      5-min Rain = 0
KAD1 130946Z 18017G22KT M04/M11 A302 RMK A01 T10351113  RH  055%=      5-min Rain = 0
KAD1 130947Z 18018KT M04/M11 A302 RMK A01 T10351113  RH  055%=      5-min Rain = 0
KAD1 130948Z 18020KT M03/M11 A302 RMK A01 T10331111  RH  055%=      5-min Rain = 0
KAD1 130949Z 18018G23KT M03/M11 A302 RMK A01 T10321110  RH  055%=      5-min Rain = 0
KAD1 130950Z 18019KT M03/M11 A302 RMK A01 T10321111  RH  054%=      5-min Rain = 0
KAD1 130951Z 18019KT M03/M11 A302 RMK A01 T10321111  RH  054%=      5-min Rain = 0
KAD1 130952Z 18018KT M03/M11 A302 RMK A01 T10321112  RH  054%=      5-min Rain = 0
KAD1 130953Z 18018KT M03/M11 A302 RMK A01 T10321111  RH  054%=      5-min Rain = 0
KAD1 130954Z 18017KT M03/M11 A3019 RMK A01 T10321111  RH  054%=      5-min Rain = 0
KAD1 130955Z 18022KT M03/M11 A3019 RMK A01 T10311111  RH  054%=      5-min Rain = 0
KAD1 130956Z 18020KT M03/M11 A3019 RMK A01 T10291109  RH  054%=      5-min Rain = 0
KAD1 130957Z 18019KT M03/M11 A3019 RMK A01 T10291109  RH  054%=      5-min Rain = 0
KAD1 130958Z 18019KT M03/M11 A3019 RMK A01 T10291110  RH  054%=      5-min Rain = 0
KAD1 130959Z 18020KT M03/M11 A3019 RMK A01 T10291110  RH  054%=      5-min Rain = 0
KAD1 131000Z 18019KT M03/M11 A3019 RMK A01 T10291110  RH  054%=      5-min Rain = 0
KAD1 131001Z 18020KT M03/M11 A302 RMK A01 T10291110  RH  054%=      5-min Rain = 0
KAD1 131002Z 18018KT M03/M11 A302 RMK A01 T10291110  RH  054%=      5-min Rain = 0
KAD1 131003Z 18018KT M03/M11 A3019 RMK A01 T10301111  RH  054%=      5-min Rain = 0
KAD1 131004Z 18019KT M03/M11 A3019 RMK A01 T10311112  RH  054%=      5-min Rain = 0
KAD1 131005Z 18018KT M03/M11 A3019 RMK A01 T10311111  RH  054%=      5-min Rain = 0
KAD1 131006Z 18019KT M03/M11 A302 RMK A01 T10311111  RH  054%=      5-min Rain = 0
KAD1 131007Z 18018KT M03/M11 A302 RMK A01 T10301111  RH  054%=      5-min Rain = 0
KAD1 131008Z 18019KT M03/M11 A302 RMK A01 T10311111  RH  054%=      5-min Rain = 0
KAD1 131009Z 18017KT M03/M11 A302 RMK A01 T10311111  RH  054%=      5-min Rain = 0
KAD1 131010Z 19015KT M03/M11 A302 RMK A01 T10311111  RH  054%=      5-min Rain = 0
KAD1 131011Z 19016KT M03/M11 A302 RMK A01 T10321112  RH  054%=      5-min Rain = 0
KAD1 131012Z 18015KT M03/M11 A302 RMK A01 T10321111  RH  054%=      5-min Rain = 0
KAD1 131013Z 18015KT M03/M11 A302 RMK A01 T10331112  RH  054%=      5-min Rain = 0
KAD1 131014Z 19015KT M03/M11 A302 RMK A01 T10331111  RH  055%=      5-min Rain = 0
KAD1 131015Z 19016KT M03/M11 A302 RMK A01 T10321111  RH  055%=      5-min Rain = 0
KAD1 131016Z 19015KT M03/M11 A302 RMK A01 T10321111  RH  055%=      5-min Rain = 0
KAD1 131017Z 19016KT M03/M11 A302 RMK A01 T10331111  RH  055%=      5-min Rain = 0
KAD1 131018Z 19014KT M03/M11 A302 RMK A01 T10321111  RH  055%=      5-min Rain = 0
KAD1 131019Z 19013KT M03/M11 A302 RMK A01 T10321111  RH  055%=      5-min Rain = 0
KAD1 131020Z 20015KT M03/M11 A302 RMK A01 T10321110  RH  055%=      5-min Rain = 0
KAD1 131021Z 20011G16KT M03/M11 A3021 RMK A01 T10321110  RH  055%=      5-min Rain = 0
KAD1 131022Z 20012KT M03/M11 A3021 RMK A01 T10321110  RH  055%=      5-min Rain = 0
KAD1 131023Z 20009KT M03/M11 A3021 RMK A01 T10321110  RH  055%=      5-min Rain = 0
KAD1 131024Z 21010KT M03/M11 A3021 RMK A01 T10331111  RH  055%=      5-min Rain = 0
KAD1 131025Z 22008KT M03/M11 A3021 RMK A01 T10341111  RH  055%=      5-min Rain = 0
KAD1 131026Z 22010KT M03/M11 A3021 RMK A01 T10341111  RH  056%=      5-min Rain = 0
KAD1 131027Z 22008KT M04/M11 A3021 RMK A01 T10351110  RH  056%=      5-min Rain = 0
KAD1 131028Z 25006KT M04/M11 A3021 RMK A01 T10361112  RH  056%=      5-min Rain = 0
KAD1 131029Z 25007KT M04/M11 A3021 RMK A01 T10381114  RH  056%=      5-min Rain = 0
KAD1 131030Z 25006KT M04/M11 A3021 RMK A01 T10401114  RH  056%=      5-min Rain = 0
KAD1 131031Z 25006KT M04/M11 A3021 RMK A01 T10411114  RH  057%=      5-min Rain = 0
KAD1 131032Z 26006KT M04/M11 A3021 RMK A01 T10411113  RH  057%=      5-min Rain = 0
KAD1 131033Z 26006KT M04/M11 A3021 RMK A01 T10411113  RH  057%=      5-min Rain = 0
KAD1 131034Z 27006KT M04/M11 A3021 RMK A01 T10411114  RH  057%=      5-min Rain = 0
KAD1 131035Z 26008KT M04/M11 A3021 RMK A01 T10421114  RH  057%=      5-min Rain = 0
KAD1 131036Z 26006KT M04/M11 A3021 RMK A01 T10421113  RH  058%=      5-min Rain = 0
KAD1 131037Z 26007KT M04/M11 A3021 RMK A01 T10421113  RH  058%=      5-min Rain = 0
KAD1 131038Z 26007KT M04/M11 A3021 RMK A01 T10411112  RH  058%=      5-min Rain = 0
KAD1 131039Z 26007KT M04/M11 A3021 RMK A01 T10401111  RH  058%=      5-min Rain = 0
KAD1 131040Z 25005KT M04/M11 A3021 RMK A01 T10391111  RH  057%=      5-min Rain = 0
KAD1 131041Z 26008KT M04/M11 A3021 RMK A01 T10381111  RH  057%=      5-min Rain = 0
KAD1 131042Z 24006KT M04/M11 A3021 RMK A01 T10371111  RH  057%=      5-min Rain = 0
KAD1 131043Z 23006KT M04/M11 A3021 RMK A01 T10371111  RH  056%=      5-min Rain = 0
KAD1 131044Z 23007KT M04/M11 A3021 RMK A01 T10371111  RH  056%=      5-min Rain = 0
KAD1 131045Z 23007KT M04/M11 A3021 RMK A01 T10371112  RH  056%=      5-min Rain = 0
KAD1 131046Z 22006KT M04/M11 A3021 RMK A01 T10381113  RH  056%=      5-min Rain = 0
KAD1 131047Z 20008KT M04/M11 A3021 RMK A01 T10391113  RH  056%=      5-min Rain = 0
KAD1 131048Z 21007KT M04/M11 A3021 RMK A01 T10391112  RH  057%=      5-min Rain = 0
KAD1 131049Z 22006KT M04/M11 A3021 RMK A01 T10391112  RH  057%=      5-min Rain = 0
KAD1 131050Z 22008KT M04/M11 A3021 RMK A01 T10401114  RH  057%=      5-min Rain = 0
KAD1 131051Z 22009KT M04/M11 A3021 RMK A01 T10411113  RH  057%=      5-min Rain = 0
KAD1 131052Z 21009KT M04/M11 A3021 RMK A01 T10411112  RH  057%=      5-min Rain = 0
KAD1 131053Z 21008KT M04/M11 A3021 RMK A01 T10401112  RH  057%=      5-min Rain = 0
KAD1 131054Z 21009KT M04/M11 A3021 RMK A01 T10401113  RH  057%=      5-min Rain = 0
KAD1 131055Z 21008KT M04/M11 A3021 RMK A01 T10411114  RH  057%=      5-min Rain = 0
KAD1 131056Z 22009KT M04/M11 A3021 RMK A01 T10421114  RH  057%=      5-min Rain = 0
KAD1 131057Z 21009KT M04/M11 A3021 RMK A01 T10431113  RH  058%=      5-min Rain = 0
KAD1 131058Z 20009KT M04/M11 A3021 RMK A01 T10421112  RH  058%=      5-min Rain = 0
KAD1 131059Z 20009KT M04/M11 A3021 RMK A01 T10401111  RH  058%=      5-min Rain = 0
KAD1 131100Z 20009KT M04/M11 A3021 RMK A01 T10401112  RH  057%=      5-min Rain = 0
KAD1 131101Z 20009KT M04/M11 A3021 RMK A01 T10401113  RH  057%=      5-min Rain = 0
KAD1 131102Z 20009KT M04/M11 A3021 RMK A01 T10411113  RH  057%=      5-min Rain = 0
KAD1 131103Z 20010KT M04/M11 A3021 RMK A01 T10421113  RH  058%=      5-min Rain = 0
KAD1 131104Z 20009KT M04/M11 A3021 RMK A01 T10421113  RH  058%=      5-min Rain = 0
KAD1 131105Z 20010KT M04/M11 A3021 RMK A01 T10411112  RH  058%=      5-min Rain = 0
KAD1 131106Z 20008KT M04/M11 A3021 RMK A01 T10391111  RH  058%=      5-min Rain = 0
KAD1 131107Z 20009KT M04/M11 A3021 RMK A01 T10401112  RH  057%=      5-min Rain = 0
KAD1 131108Z 21008KT M04/M11 A3021 RMK A01 T10411113  RH  057%=      5-min Rain = 0
KAD1 131109Z 21008KT M04/M11 A3021 RMK A01 T10421114  RH  058%=      5-min Rain = 0
KAD1 131110Z 21008KT M04/M11 A3021 RMK A01 T10431114  RH  058%=      5-min Rain = 0
KAD1 131111Z 22007KT M04/M11 A3021 RMK A01 T10441113  RH  058%=      5-min Rain = 0
KAD1 131112Z 22006KT M04/M11 A3021 RMK A01 T10441113  RH  058%=      5-min Rain = 0
KAD1 131113Z 22006KT M04/M11 A3021 RMK A01 T10441113  RH  059%=      5-min Rain = 0
KAD1 131114Z 24006KT M04/M11 A3021 RMK A01 T10441113  RH  059%=      5-min Rain = 0
KAD1 131115Z 23007KT M05/M11 A3022 RMK A01 T10451113  RH  059%=      5-min Rain = 0
KAD1 131116Z 25007KT M05/M11 A3022 RMK A01 T10451113  RH  059%=      5-min Rain = 0
KAD1 131117Z 25007KT M05/M11 A3022 RMK A01 T10451113  RH  059%=      5-min Rain = 0
KAD1 131118Z 24007KT M04/M11 A3022 RMK A01 T10441113  RH  059%=      5-min Rain = 0
KAD1 131119Z 24006KT M05/M11 A3022 RMK A01 T10451113  RH  059%=      5-min Rain = 0
KAD1 131120Z 24006KT M05/M11 A3022 RMK A01 T10451113  RH  059%=      5-min Rain = 0
KAD1 131121Z 24006KT M05/M11 A3022 RMK A01 T10451114  RH  059%=      5-min Rain = 0
KAD1 131122Z 24007KT M05/M11 A3022 RMK A01 T10461114  RH  059%=      5-min Rain = 0
KAD1 131123Z 25007KT M05/M11 A3022 RMK A01 T10471114  RH  059%=      5-min Rain = 0
KAD1 131124Z 25008KT M05/M11 A3022 RMK A01 T10471114  RH  059%=      5-min Rain = 0
KAD1 131125Z 25008KT M05/M11 A3022 RMK A01 T10471114  RH  059%=      5-min Rain = 0
KAD1 131126Z 24007KT M05/M11 A3022 RMK A01 T10471114  RH  059%=      5-min Rain = 0
KAD1 131127Z 23008KT M05/M11 A3022 RMK A01 T10461113  RH  060%=      5-min Rain = 0
KAD1 131128Z 23008KT M05/M11 A3022 RMK A01 T10451112  RH  060%=      5-min Rain = 0
KAD1 131129Z 23007KT M04/M11 A3022 RMK A01 T10441111  RH  059%=      5-min Rain = 0
KAD1 131130Z 23008KT M04/M11 A3022 RMK A01 T10441112  RH  059%=      5-min Rain = 0
KAD1 131131Z 24008KT M04/M11 A3022 RMK A01 T10441112  RH  059%=      5-min Rain = 0
KAD1 131132Z 24008KT M04/M11 A3022 RMK A01 T10441113  RH  059%=      5-min Rain = 0
KAD1 131133Z 24008KT M05/M11 A3022 RMK A01 T10451113  RH  059%=      5-min Rain = 0
KAD1 131134Z 24008KT M04/M11 A3022 RMK A01 T10441112  RH  059%=      5-min Rain = 0
KAD1 131135Z 24008KT M04/M11 A3022 RMK A01 T10441112  RH  059%=      5-min Rain = 0
KAD1 131136Z 24008KT M04/M11 A3022 RMK A01 T10431111  RH  059%=      5-min Rain = 0
KAD1 131137Z 23008KT M04/M11 A3022 RMK A01 T10431111  RH  059%=      5-min Rain = 0
KAD1 131138Z 24008KT M04/M11 A3022 RMK A01 T10431112  RH  059%=      5-min Rain = 0
KAD1 131139Z 24007KT M04/M11 A3022 RMK A01 T10441113  RH  059%=      5-min Rain = 0
KAD1 131140Z 23006KT M04/M11 A3022 RMK A01 T10441113  RH  059%=      5-min Rain = 0
KAD1 131141Z 24007KT M05/M11 A3022 RMK A01 T10451113  RH  059%=      5-min Rain = 0
KAD1 131142Z 24006KT M05/M11 A3022 RMK A01 T10461113  RH  059%=      5-min Rain = 0
KAD1 131143Z 25005KT M05/M11 A3022 RMK A01 T10471114  RH  059%=      5-min Rain = 0
KAD1 131144Z 26005KT M05/M12 A3022 RMK A01 T10481115  RH  060%=      5-min Rain = 0
KAD1 131145Z 26004KT M05/M12 A3022 RMK A01 T10491115  RH  060%=      5-min Rain = 0
KAD1 131146Z 26005KT M05/M12 A3022 RMK A01 T10501115  RH  060%=      5-min Rain = 0
KAD1 131147Z 28005KT M05/M12 A3023 RMK A01 T10511115  RH  060%=      5-min Rain = 0
KAD1 131148Z 29004KT M05/M12 A3023 RMK A01 T10511115  RH  061%=      5-min Rain = 0
KAD1 131149Z 28004KT M05/M12 A3023 RMK A01 T10511115  RH  061%=      5-min Rain = 0
KAD1 131150Z 25005KT M05/M12 A3023 RMK A01 T10511115  RH  061%=      5-min Rain = 0
KAD1 131151Z 25006KT M05/M12 A3023 RMK A01 T10521115  RH  061%=      5-min Rain = 0
KAD1 131152Z 24007KT M05/M12 A3023 RMK A01 T10521116  RH  061%=      5-min Rain = 0
KAD1 131153Z 24007KT M05/M12 A3023 RMK A01 T10541117  RH  061%=      5-min Rain = 0
KAD1 131154Z 24008KT M06/M12 A3023 RMK A01 T10551117  RH  062%=      5-min Rain = 0
KAD1 131155Z 23008KT M06/M12 A3023 RMK A01 T10561117  RH  062%=      5-min Rain = 0
KAD1 131156Z 23008KT M06/M12 A3022 RMK A01 T10561117  RH  063%=      5-min Rain = 0
KAD1 131157Z 23008KT M06/M12 A3022 RMK A01 T10571116  RH  063%=      5-min Rain = 0
KAD1 131158Z 23008KT M06/M12 A3022 RMK A01 T10561115  RH  063%=      5-min Rain = 0
KAD1 131159Z 22009KT M06/M11 A3022 RMK A01 T10551114  RH  063%=      5-min Rain = 0
KAD1 131200Z 22009KT M06/M11 A3022 RMK A01 T10551114  RH  063%=      5-min Rain = 0
KAD1 131201Z 22009KT M05/M11 A3022 RMK A01 T10541114  RH  063%=      5-min Rain = 0
KAD1 131202Z 22009KT M05/M11 A3022 RMK A01 T10541113  RH  063%=      5-min Rain = 0
KAD1 131203Z 22009KT M05/M11 A3022 RMK A01 T10541113  RH  063%=      5-min Rain = 0
KAD1 131204Z 22010KT M05/M11 A3022 RMK A01 T10521112  RH  063%=      5-min Rain = 0
KAD1 131205Z 22010KT M05/M11 A3022 RMK A01 T10501111  RH  063%=      5-min Rain = 0
KAD1 131206Z 22011KT M05/M11 A3022 RMK A01 T10481110  RH  062%=      5-min Rain = 0
KAD1 131207Z 21010KT M05/M11 A3022 RMK A01 T10461109  RH  061%=      5-min Rain = 0
KAD1 131208Z 21010KT M04/M11 A3022 RMK A01 T10441109  RH  060%=      5-min Rain = 0
KAD1 131209Z 22010KT M04/M11 A3022 RMK A01 T10431110  RH  060%=      5-min Rain = 0
KAD1 131210Z 21010KT M04/M11 A3022 RMK A01 T10431110  RH  060%=      5-min Rain = 0
KAD1 131211Z 21011KT M04/M11 A3022 RMK A01 T10431110  RH  059%=      5-min Rain = 0
KAD1 131212Z 21011KT M04/M11 A3022 RMK A01 T10431110  RH  059%=      5-min Rain = 0
KAD1 131213Z 21012KT M04/M11 A3022 RMK A01 T10431111  RH  059%=      5-min Rain = 0
KAD1 131214Z 20012KT M04/M11 A3022 RMK A01 T10431111  RH  059%=      5-min Rain = 0
KAD1 131215Z 20012KT M04/M11 A3022 RMK A01 T10431111  RH  059%=      5-min Rain = 0
KAD1 131216Z 20012KT M04/M11 A3022 RMK A01 T10431111  RH  059%=      5-min Rain = 0
KAD1 131217Z 20012KT M04/M11 A3022 RMK A01 T10431112  RH  059%=      5-min Rain = 0
KAD1 131218Z 20012KT M04/M11 A3022 RMK A01 T10441113  RH  059%=      5-min Rain = 0
KAD1 131219Z 20012KT M04/M11 A3022 RMK A01 T10441113  RH  059%=      5-min Rain = 0
KAD1 131220Z 20012KT M05/M11 A3022 RMK A01 T10451113  RH  059%=      5-min Rain = 0
KAD1 131221Z 20011KT M05/M11 A3022 RMK A01 T10461113  RH  059%=      5-min Rain = 0
KAD1 131222Z 20011KT M05/M11 A3022 RMK A01 T10461113  RH  059%=      5-min Rain = 0
KAD1 131223Z 20011KT M05/M11 A3022 RMK A01 T10471113  RH  060%=      5-min Rain = 0
KAD1 131224Z 20010KT M05/M11 A3022 RMK A01 T10471112  RH  060%=      5-min Rain = 0
KAD1 131225Z 20011KT M05/M11 A3022 RMK A01 T10471112  RH  060%=      5-min Rain = 0
KAD1 131226Z 20010KT M05/M11 A3022 RMK A01 T10461112  RH  060%=      5-min Rain = 0
KAD1 131227Z 20010KT M05/M11 A3022 RMK A01 T10461112  RH  060%=      5-min Rain = 0
KAD1 131228Z 20010KT M05/M11 A3022 RMK A01 T10461112  RH  060%=      5-min Rain = 0
KAD1 131229Z 20010KT M05/M11 A3022 RMK A01 T10461112  RH  060%=      5-min Rain = 0
KAD1 131230Z 21009KT M05/M11 A3022 RMK A01 T10471112  RH  060%=      5-min Rain = 0
KAD1 131231Z 21010KT M05/M11 A3022 RMK A01 T10471112  RH  060%=      5-min Rain = 0
KAD1 131232Z 21010KT M05/M11 A3022 RMK A01 T10481112  RH  061%=      5-min Rain = 0
KAD1 131233Z 20010KT M05/M11 A3022 RMK A01 T10481112  RH  061%=      5-min Rain = 0
KAD1 131234Z 21010KT M05/M11 A3022 RMK A01 T10481112  RH  061%=      5-min Rain = 0
KAD1 131235Z 21010KT M05/M11 A3022 RMK A01 T10491112  RH  061%=      5-min Rain = 0
KAD1 131236Z 20010KT M05/M11 A3022 RMK A01 T10491112  RH  061%=      5-min Rain = 0
KAD1 131237Z 20010KT M05/M11 A3022 RMK A01 T10491112  RH  061%=      5-min Rain = 0
KAD1 131238Z 20010KT M05/M11 A3022 RMK A01 T10501113  RH  061%=      5-min Rain = 0
KAD1 131239Z 20011KT M05/M11 A3022 RMK A01 T10501113  RH  061%=      5-min Rain = 0
KAD1 131240Z 20011KT M05/M11 A3022 RMK A01 T10501112  RH  062%=      5-min Rain = 0
KAD1 131241Z 20011KT M05/M11 A3022 RMK A01 T10501112  RH  062%=      5-min Rain = 0
KAD1 131242Z 20012KT M05/M11 A3022 RMK A01 T10491111  RH  062%=      5-min Rain = 0
KAD1 131243Z 20011KT M05/M11 A3022 RMK A01 T10471110  RH  062%=      5-min Rain = 0
KAD1 131244Z 20011KT M05/M11 A3022 RMK A01 T10461109  RH  062%=      5-min Rain = 0
KAD1 131245Z 20012KT M05/M11 A3022 RMK A01 T10461109  RH  061%=      5-min Rain = 0
KAD1 131246Z 21012KT M05/M11 A3022 RMK A01 T10451108  RH  061%=      5-min Rain = 0
KAD1 131247Z 21012KT M04/M11 A3022 RMK A01 T10441108  RH  061%=      5-min Rain = 0
KAD1 131248Z 21011KT M04/M11 A3022 RMK A01 T10431107  RH  061%=      5-min Rain = 0
KAD1 131249Z 21011KT M04/M11 A3022 RMK A01 T10431107  RH  061%=      5-min Rain = 0
KAD1 131250Z 21011KT M04/M11 A3022 RMK A01 T10431107  RH  061%=      5-min Rain = 0
KAD1 131251Z 21011KT M04/M11 A3022 RMK A01 T10421106  RH  061%=      5-min Rain = 0
KAD1 131252Z 21011KT M04/M11 A3022 RMK A01 T10421107  RH  061%=      5-min Rain = 0
KAD1 131253Z 21011KT M04/M11 A3022 RMK A01 T10421107  RH  060%=      5-min Rain = 0
KAD1 131254Z 21011KT M04/M11 A3022 RMK A01 T10431108  RH  061%=      5-min Rain = 0
KAD1 131255Z 21011KT M04/M11 A3022 RMK A01 T10431107  RH  061%=      5-min Rain = 0
KAD1 131256Z 21011KT M04/M11 A3022 RMK A01 T10431107  RH  061%=      5-min Rain = 0
KAD1 131257Z 21011KT M04/M11 A3022 RMK A01 T10431107  RH  061%=      5-min Rain = 0
KAD1 131258Z 22010KT M04/M11 A3022 RMK A01 T10431107  RH  061%=      5-min Rain = 0
KAD1 131259Z 22010KT M04/M11 A3022 RMK A01 T10431106  RH  062%=      5-min Rain = 0
KAD1 131300Z 22011KT M04/M10 A3022 RMK A01 T10421104  RH  062%=      5-min Rain = 0
KAD1 131301Z 21010KT M04/M10 A3023 RMK A01 T10411104  RH  061%=      5-min Rain = 0
KAD1 131302Z 21011KT M04/M11 A3023 RMK A01 T10411105  RH  061%=      5-min Rain = 0
KAD1 131303Z 22011KT M04/M10 A3023 RMK A01 T10401104  RH  061%=      5-min Rain = 0
KAD1 131304Z 22011KT M04/M11 A3023 RMK A01 T10401105  RH  061%=      5-min Rain = 0
KAD1 131305Z 22011KT M04/M11 A3023 RMK A01 T10411105  RH  061%=      5-min Rain = 0
KAD1 131306Z 21012KT M04/M11 A3023 RMK A01 T10411105  RH  061%=      5-min Rain = 0
KAD1 131307Z 21012KT M04/M11 A3022 RMK A01 T10411105  RH  061%=      5-min Rain = 0
KAD1 131308Z 21012KT M04/M11 A3022 RMK A01 T10411105  RH  061%=      5-min Rain = 0
KAD1 131309Z 21012KT M04/M11 A3022 RMK A01 T10421105  RH  061%=      5-min Rain = 0
KAD1 131310Z 21012KT M04/M11 A3022 RMK A01 T10421105  RH  061%=      5-min Rain = 0
KAD1 131311Z 21011KT M04/M11 A3022 RMK A01 T10411105  RH  061%=      5-min Rain = 0
KAD1 131312Z 21011KT M04/M10 A3022 RMK A01 T10411104  RH  062%=      5-min Rain = 0
KAD1 131313Z 21011KT M04/M10 A3023 RMK A01 T10411104  RH  062%=      5-min Rain = 0
KAD1 131314Z 21011KT M04/M10 A3023 RMK A01 T10411104  RH  061%=      5-min Rain = 0
KAD1 131315Z 21011KT M04/M10 A3023 RMK A01 T10411104  RH  062%=      5-min Rain = 0
KAD1 131316Z 21011KT M04/M10 A3023 RMK A01 T10401103  RH  062%=      5-min Rain = 0
KAD1 131317Z 21011KT M04/M10 A3023 RMK A01 T10401102  RH  062%=      5-min Rain = 0
KAD1 131318Z 21011KT M04/M10 A3023 RMK A01 T10391102  RH  062%=      5-min Rain = 0
KAD1 131319Z 21011KT M04/M10 A3023 RMK A01 T10381101  RH  062%=      5-min Rain = 0
KAD1 131320Z 22011KT M04/M10 A3023 RMK A01 T10371100  RH  062%=      5-min Rain = 0
KAD1 131321Z 22010KT M04/M10 A3023 RMK A01 T10371100  RH  061%=      5-min Rain = 0
KAD1 131322Z 22010KT M04/M10 A3023 RMK A01 T10371100  RH  061%=      5-min Rain = 0
KAD1 131323Z 22010KT M04/M10 A3023 RMK A01 T10361100  RH  061%=      5-min Rain = 0
KAD1 131324Z 23011KT M04/M10 A3023 RMK A01 T10351099  RH  061%=      5-min Rain = 0
KAD1 131325Z 23010KT M03/M10 A3023 RMK A01 T10341097  RH  062%=      5-min Rain = 0
KAD1 131326Z 23010KT M03/M10 A3023 RMK A01 T10321096  RH  062%=      5-min Rain = 0
KAD1 131327Z 24008KT M03/M10 A3023 RMK A01 T10321095  RH  061%=      5-min Rain = 0
KAD1 131328Z 24008KT M03/M10 A3023 RMK A01 T10311095  RH  061%=      5-min Rain = 0
KAD1 131329Z 23009KT M03/M10 A3023 RMK A01 T10311095  RH  061%=      5-min Rain = 0
KAD1 131330Z 23010KT M03/M10 A3023 RMK A01 T10311095  RH  061%=      5-min Rain = 0
KAD1 131331Z 23010KT M03/M09 A3023 RMK A01 T10301094  RH  061%=      5-min Rain = 0
KAD1 131332Z 24010KT M03/M09 A3023 RMK A01 T10291093  RH  061%=      5-min Rain = 0
KAD1 131333Z 24009KT M03/M09 A3023 RMK A01 T10281093  RH  061%=      5-min Rain = 0
KAD1 131334Z 24010KT M03/M09 A3023 RMK A01 T10291094  RH  061%=      5-min Rain = 0
KAD1 131335Z 24011KT M03/M10 A3023 RMK A01 T10291095  RH  061%=      5-min Rain = 0
KAD1 131336Z 24010KT M03/M10 A3023 RMK A01 T10301095  RH  061%=      5-min Rain = 0
KAD1 131337Z 24011KT M03/M10 A3023 RMK A01 T10301095  RH  061%=      5-min Rain = 0
KAD1 131338Z 23011KT M03/M09 A3023 RMK A01 T10301094  RH  061%=      5-min Rain = 0
KAD1 131339Z 23010KT M03/M09 A3023 RMK A01 T10281092  RH  061%=      5-min Rain = 0
KAD1 131340Z 23011KT M03/M09 A3023 RMK A01 T10271091  RH  061%=      5-min Rain = 0
KAD1 131341Z 23011KT M03/M09 A3023 RMK A01 T10261091  RH  061%=      5-min Rain = 0
KAD1 131342Z 23011KT M03/M09 A3023 RMK A01 T10251090  RH  061%=      5-min Rain = 0
KAD1 131343Z 23011KT M02/M09 A3023 RMK A01 T10221088  RH  061%=      5-min Rain = 0
KAD1 131344Z 23010KT M02/M09 A3023 RMK A01 T10211088  RH  060%=      5-min Rain = 0
KAD1 131345Z 23010KT M02/M09 A3023 RMK A01 T10211089  RH  060%=      5-min Rain = 0
KAD1 131346Z 23010KT M02/M09 A3023 RMK A01 T10211089  RH  060%=      5-min Rain = 0
KAD1 131347Z 23011KT M02/M09 A3023 RMK A01 T10211089  RH  060%=      5-min Rain = 0
KAD1 131348Z 22011KT M02/M09 A3023 RMK A01 T10211088  RH  060%=      5-min Rain = 0
KAD1 131349Z 22012KT M02/M09 A3023 RMK A01 T10201088  RH  060%=      5-min Rain = 0
KAD1 131350Z 23012KT M02/M09 A3023 RMK A01 T10191087  RH  059%=      5-min Rain = 0
KAD1 131351Z 23012KT M02/M09 A3023 RMK A01 T10181087  RH  059%=      5-min Rain = 0
KAD1 131352Z 22012KT M02/M09 A3023 RMK A01 T10191088  RH  059%=      5-min Rain = 0
KAD1 131353Z 22013KT M02/M09 A3023 RMK A01 T10181087  RH  059%=      5-min Rain = 0
KAD1 131354Z 22013KT M02/M09 A3023 RMK A01 T10181087  RH  059%=      5-min Rain = 0
KAD1 131355Z 22014KT M02/M09 A3023 RMK A01 T10171087  RH  059%=      5-min Rain = 0
KAD1 131356Z 21014KT M02/M09 A3023 RMK A01 T10161085  RH  059%=      5-min Rain = 0
KAD1 131357Z 21014KT M02/M08 A3023 RMK A01 T10151084  RH  059%=      5-min Rain = 0
KAD1 131358Z 21014KT M01/M08 A3023 RMK A01 T10141084  RH  059%=      5-min Rain = 0
KAD1 131359Z 22014KT M01/M08 A3023 RMK A01 T10131084  RH  058%=      5-min Rain = 0
KAD1 131400Z 22014KT M01/M08 A3023 RMK A01 T10121084  RH  058%=      5-min Rain = 0
KAD1 131401Z 22013KT M01/M08 A3023 RMK A01 T10111084  RH  058%=      5-min Rain = 0
KAD1 131402Z 22013KT M01/M08 A3023 RMK A01 T10101084  RH  058%=      5-min Rain = 0
KAD1 131403Z 22012KT M01/M08 A3023 RMK A01 T10101084  RH  057%=      5-min Rain = 0
KAD1 131404Z 21011KT M01/M09 A3023 RMK A01 T10111085  RH  057%=      5-min Rain = 0
KAD1 131405Z 21011KT M01/M09 A3023 RMK A01 T10131087  RH  057%=      5-min Rain = 0
KAD1 131406Z 21011KT M02/M09 A3023 RMK A01 T10151089  RH  057%=      5-min Rain = 0
KAD1 131407Z 21012KT M02/M09 A3024 RMK A01 T10181090  RH  058%=      5-min Rain = 0
KAD1 131408Z 21013KT M02/M09 A3024 RMK A01 T10181089  RH  058%=      5-min Rain = 0
KAD1 131409Z 21013KT M02/M09 A3024 RMK A01 T10181089  RH  058%=      5-min Rain = 0
KAD1 131410Z 21013KT M02/M09 A3024 RMK A01 T10171088  RH  058%=      5-min Rain = 0
KAD1 131411Z 21013KT M02/M09 A3024 RMK A01 T10161089  RH  058%=      5-min Rain = 0
KAD1 131412Z 21013KT M02/M09 A3024 RMK A01 T10151089  RH  057%=      5-min Rain = 0
KAD1 131413Z 21013KT M02/M09 A3023 RMK A01 T10151090  RH  057%=      5-min Rain = 0
KAD1 131414Z 20013KT M02/M09 A3023 RMK A01 T10171092  RH  057%=      5-min Rain = 0
KAD1 131415Z 20013KT M02/M09 A3023 RMK A01 T10181092  RH  057%=      5-min Rain = 0
KAD1 131416Z 21014KT M02/M09 A3024 RMK A01 T10181092  RH  057%=      5-min Rain = 0
KAD1 131417Z 21014KT M02/M09 A3024 RMK A01 T10181092  RH  057%=      5-min Rain = 0
KAD1 131418Z 21013KT M02/M09 A3024 RMK A01 T10171092  RH  057%=      5-min Rain = 0
KAD1 131419Z 21013KT M02/M09 A3024 RMK A01 T10161092  RH  056%=      5-min Rain = 0
KAD1 131420Z 21013KT M02/M09 A3024 RMK A01 T10151092  RH  056%=      5-min Rain = 0
KAD1 131421Z 21013KT M01/M09 A3024 RMK A01 T10141092  RH  056%=      5-min Rain = 0
KAD1 131422Z 20015KT M01/M09 A3024 RMK A01 T10141092  RH  055%=      5-min Rain = 0
KAD1 131423Z 20014KT M01/M09 A3024 RMK A01 T10131091  RH  055%=      5-min Rain = 0
KAD1 131424Z 20015KT M01/M09 A3024 RMK A01 T10131092  RH  055%=      5-min Rain = 0
KAD1 131425Z 20014KT M01/M09 A3024 RMK A01 T10131093  RH  054%=      5-min Rain = 0
KAD1 131426Z 21015KT M01/M09 A3024 RMK A01 T10131093  RH  054%=      5-min Rain = 0
KAD1 131427Z 21013KT M01/M09 A3024 RMK A01 T10131094  RH  054%=      5-min Rain = 0
KAD1 131428Z 21013KT M01/M09 A3024 RMK A01 T10131093  RH  054%=      5-min Rain = 0
KAD1 131429Z 21013KT M01/M09 A3024 RMK A01 T10131093  RH  054%=      5-min Rain = 0
KAD1 131430Z 21014KT M01/M09 A3024 RMK A01 T10131094  RH  054%=      5-min Rain = 0
KAD1 131431Z 20012KT M01/M09 A3024 RMK A01 T10141094  RH  054%=      5-min Rain = 0
KAD1 131432Z 20014KT M02/M10 A3024 RMK A01 T10151095  RH  054%=      5-min Rain = 0
KAD1 131433Z 20014KT M02/M10 A3024 RMK A01 T10151095  RH  055%=      5-min Rain = 0
KAD1 131434Z 20014KT M02/M10 A3024 RMK A01 T10161096  RH  055%=      5-min Rain = 0
KAD1 131435Z 20014KT M02/M10 A3024 RMK A01 T10161095  RH  055%=      5-min Rain = 0
KAD1 131436Z 20013KT M02/M10 A3024 RMK A01 T10161095  RH  055%=      5-min Rain = 0
KAD1 131437Z 20014KT M02/M10 A3024 RMK A01 T10151095  RH  055%=      5-min Rain = 0
KAD1 131438Z 20013KT M01/M10 A3025 RMK A01 T10141095  RH  054%=      5-min Rain = 0
KAD1 131439Z 20014KT M01/M10 A3025 RMK A01 T10131095  RH  054%=      5-min Rain = 0
KAD1 131440Z 20013KT M01/M10 A3025 RMK A01 T10131095  RH  054%=      5-min Rain = 0
KAD1 131441Z 20013KT M01/M09 A3025 RMK A01 T10111094  RH  054%=      5-min Rain = 0
KAD1 131442Z 20012KT M01/M09 A3025 RMK A01 T10101093  RH  053%=      5-min Rain = 0
KAD1 131443Z 20013KT M01/M09 A3025 RMK A01 T10091093  RH  053%=      5-min Rain = 0
KAD1 131444Z 20013KT M01/M09 A3025 RMK A01 T10091094  RH  053%=      5-min Rain = 0
KAD1 131445Z 20012KT M01/M09 A3025 RMK A01 T10091094  RH  052%=      5-min Rain = 0
KAD1 131446Z 20012KT M01/M09 A3025 RMK A01 T10081094  RH  052%=      5-min Rain = 0
KAD1 131447Z 20010KT M01/M09 A3025 RMK A01 T10061092  RH  052%=      5-min Rain = 0
KAD1 131448Z 20013KT M00/M09 A3025 RMK A01 T10041092  RH  052%=      5-min Rain = 0
KAD1 131449Z 20012KT M00/M09 A3025 RMK A01 T10041092  RH  051%=      5-min Rain = 0
KAD1 131450Z 20013KT M00/M09 A3025 RMK A01 T10031093  RH  051%=      5-min Rain = 0
KAD1 131451Z 21011KT M00/M09 A3026 RMK A01 T10031093  RH  051%=      5-min Rain = 0
KAD1 131452Z 20013KT M00/M09 A3025 RMK A01 T10031093  RH  051%=      5-min Rain = 0
KAD1 131453Z 20012KT M00/M09 A3026 RMK A01 T10031093  RH  050%=      5-min Rain = 0
KAD1 131454Z 20012KT M00/M09 A3026 RMK A01 T10021093  RH  050%=      5-min Rain = 0
KAD1 131455Z 20012KT M00/M09 A3026 RMK A01 T10011092  RH  050%=      5-min Rain = 0
KAD1 131456Z 20013KT 00/09 A3026 RMK A01 T00000-91  RH  050%=      5-min Rain = 0
KAD1 131457Z 20012KT 00/M09 A3026 RMK A01 T00011092  RH  050%=      5-min Rain = 0
KAD1 131458Z 20012KT 00/09 A3026 RMK A01 T00-00-92  RH  050%=      5-min Rain = 0
KAD1 131459Z 20010KT 00/09 A3026 RMK A01 T00-00-92  RH  050%=      5-min Rain = 0
KAD1 131500Z 21012KT M00/M09 A3026 RMK A01 T10011093  RH  050%=      5-min Rain = 0
KAD1 131501Z 20012KT M00/M09 A3026 RMK A01 T10011093  RH  050%=      5-min Rain = 0
KAD1 131502Z 20011KT M00/M09 A3026 RMK A01 T10021093  RH  050%=      5-min Rain = 0
KAD1 131503Z 20012KT M00/M09 A3026 RMK A01 T10011092  RH  050%=      5-min Rain = 0
KAD1 131504Z 20011KT 00/09 A3026 RMK A01 T00-00-92  RH  050%=      5-min Rain = 0
KAD1 131505Z 20011KT 00/09 A3026 RMK A01 T00000-92  RH  050%=      5-min Rain = 0
KAD1 131506Z 20012KT 00/M09 A3026 RMK A01 T00011091  RH  050%=      5-min Rain = 0
KAD1 131507Z 20010KT 00/M09 A3026 RMK A01 T00011091  RH  050%=      5-min Rain = 0
KAD1 131508Z 21013KT 00/M09 A3026 RMK A01 T00031090  RH  050%=      5-min Rain = 0
KAD1 131509Z 20012KT 00/M09 A3026 RMK A01 T00041090  RH  050%=      5-min Rain = 0
KAD1 131510Z 20011KT 00/M09 A3026 RMK A01 T00041089  RH  049%=      5-min Rain = 0
KAD1 131511Z 20012KT 01/M09 A3026 RMK A01 T00061089  RH  049%=      5-min Rain = 0
KAD1 131512Z 20014KT 01/M09 A3025 RMK A01 T00071089  RH  049%=      5-min Rain = 0
KAD1 131513Z 20014KT 01/M09 A3025 RMK A01 T00071089  RH  049%=      5-min Rain = 0
KAD1 131514Z 20014KT 01/M09 A3025 RMK A01 T00071089  RH  049%=      5-min Rain = 0
KAD1 131515Z 20013KT 01/M09 A3025 RMK A01 T00081088  RH  049%=      5-min Rain = 0
KAD1 131516Z 20014KT 01/M09 A3025 RMK A01 T00101087  RH  048%=      5-min Rain = 0
KAD1 131517Z 20013KT 01/M09 A3026 RMK A01 T00111086  RH  048%=      5-min Rain = 0
KAD1 131518Z 20015KT 01/M09 A3025 RMK A01 T00121086  RH  048%=      5-min Rain = 0
KAD1 131519Z 20014KT 01/M09 A3026 RMK A01 T00121086  RH  048%=      5-min Rain = 0
KAD1 131520Z 20015KT 01/M09 A3025 RMK A01 T00121086  RH  048%=      5-min Rain = 0
KAD1 131521Z 20013KT 01/M09 A3025 RMK A01 T00121085  RH  049%=      5-min Rain = 0
KAD1 131522Z 20014KT 01/M09 A3025 RMK A01 T00121085  RH  049%=      5-min Rain = 0
KAD1 131523Z 20013KT 01/M09 A3025 RMK A01 T00121086  RH  048%=      5-min Rain = 0
KAD1 131524Z 20012KT 01/M09 A3025 RMK A01 T00111086  RH  048%=      5-min Rain = 0
KAD1 131525Z 20014KT 01/M09 A3025 RMK A01 T00111086  RH  048%=      5-min Rain = 0
KAD1 131526Z 20014KT 01/M09 A3025 RMK A01 T00111086  RH  048%=      5-min Rain = 0
KAD1 131527Z 20013KT 01/M09 A3025 RMK A01 T00111086  RH  048%=      5-min Rain = 0
KAD1 131528Z 21013KT 01/M09 A3025 RMK A01 T00121085  RH  049%=      5-min Rain = 0
KAD1 131529Z 21014KT 01/M08 A3026 RMK A01 T00131084  RH  048%=      5-min Rain = 0
KAD1 131530Z 21014KT 01/M08 A3025 RMK A01 T00141084  RH  048%=      5-min Rain = 0
KAD1 131531Z 21015KT 01/M09 A3025 RMK A01 T00131085  RH  048%=      5-min Rain = 0
KAD1 131532Z 20014KT 01/M08 A3025 RMK A01 T00141084  RH  048%=      5-min Rain = 0
KAD1 131533Z 21013KT 02/M08 A3026 RMK A01 T00151084  RH  048%=      5-min Rain = 0
KAD1 131534Z 20016KT 02/M08 A3026 RMK A01 T00161084  RH  048%=      5-min Rain = 0
KAD1 131535Z 20016KT 02/M08 A3026 RMK A01 T00161084  RH  047%=      5-min Rain = 0
KAD1 131536Z 20015KT 02/M09 A3026 RMK A01 T00151085  RH  047%=      5-min Rain = 0
KAD1 131537Z 20015KT 02/M08 A3025 RMK A01 T00151084  RH  048%=      5-min Rain = 0
KAD1 131538Z 20014KT 02/M09 A3025 RMK A01 T00151085  RH  047%=      5-min Rain = 0
KAD1 131539Z 21014KT 02/M09 A3026 RMK A01 T00161085  RH  047%=      5-min Rain = 0
KAD1 131540Z 21012KT 02/M08 A3026 RMK A01 T00181083  RH  047%=      5-min Rain = 0
KAD1 131541Z 21014KT 02/M08 A3026 RMK A01 T00191083  RH  047%=      5-min Rain = 0
KAD1 131542Z 21013KT 02/M08 A3026 RMK A01 T00201083  RH  046%=      5-min Rain = 0
KAD1 131543Z 21013KT 02/M08 A3026 RMK A01 T00221081  RH  047%=      5-min Rain = 0
KAD1 131544Z 21015KT 02/M08 A3026 RMK A01 T00241081  RH  046%=      5-min Rain = 0
KAD1 131545Z 21015KT 02/M08 A3026 RMK A01 T00241082  RH  046%=      5-min Rain = 0
KAD1 131546Z 21015KT 02/M08 A3026 RMK A01 T00241081  RH  046%=      5-min Rain = 0
KAD1 131547Z 22014KT 02/M08 A3026 RMK A01 T00241081  RH  046%=      5-min Rain = 0
KAD1 131548Z 21015KT 03/M08 A3026 RMK A01 T00251078  RH  046%=      5-min Rain = 0
KAD1 131549Z 22015KT 03/M08 A3026 RMK A01 T00261077  RH  047%=      5-min Rain = 0
KAD1 131550Z 22014KT 03/M08 A3026 RMK A01 T00271077  RH  046%=      5-min Rain = 0
KAD1 131551Z 21015KT 03/M08 A3026 RMK A01 T00281077  RH  046%=      5-min Rain = 0
KAD1 131552Z 22015KT 03/M08 A3026 RMK A01 T00281077  RH  046%=      5-min Rain = 0
KAD1 131553Z 21015KT 03/M08 A3026 RMK A01 T00291077  RH  046%=      5-min Rain = 0
KAD1 131554Z 22014KT 03/M08 A3026 RMK A01 T00291077  RH  046%=      5-min Rain = 0
KAD1 131555Z 22013KT 03/M08 A3026 RMK A01 T00301075  RH  046%=      5-min Rain = 0
KAD1 131556Z 22015KT 03/M07 A3026 RMK A01 T00331072  RH  046%=      5-min Rain = 0
KAD1 131557Z 22014KT 04/M07 A3026 RMK A01 T00351073  RH  045%=      5-min Rain = 0
KAD1 131558Z 23015KT 04/M07 A3026 RMK A01 T00351072  RH  045%=      5-min Rain = 0
KAD1 131559Z 23014KT 04/M07 A3026 RMK A01 T00351072  RH  045%=      5-min Rain = 0
KAD1 131600Z 22013KT 04/M07 A3026 RMK A01 T00361070  RH  046%=      5-min Rain = 0
KAD1 131601Z 22013KT 04/M07 A3026 RMK A01 T00391069  RH  045%=      5-min Rain = 0
KAD1 131602Z 22014KT 04/M07 A3026 RMK A01 T00401070  RH  045%=      5-min Rain = 0
KAD1 131603Z 22013KT 04/M07 A3026 RMK A01 T00411070  RH  044%=      5-min Rain = 0
KAD1 131604Z 22014KT 04/M07 A3026 RMK A01 T00421069  RH  044%=      5-min Rain = 0
KAD1 131605Z 23012KT 04/M07 A3026 RMK A01 T00431068  RH  044%=      5-min Rain = 0
KAD1 131606Z 23013KT 04/M07 A3026 RMK A01 T00431068  RH  044%=      5-min Rain = 0
KAD1 131607Z 23013KT 04/M07 A3026 RMK A01 T00441068  RH  044%=      5-min Rain = 0
KAD1 131608Z 23012KT 04/M07 A3026 RMK A01 T00431067  RH  044%=      5-min Rain = 0
KAD1 131609Z 23012KT 04/M07 A3026 RMK A01 T00441067  RH  044%=      5-min Rain = 0
KAD1 131610Z 23010KT 04/M07 A3026 RMK A01 T00441067  RH  044%=      5-min Rain = 0
KAD1 131611Z 24011KT 05/M06 A3026 RMK A01 T00471064  RH  044%=      5-min Rain = 0
KAD1 131612Z 24010KT 05/M06 A3026 RMK A01 T00501063  RH  044%=      5-min Rain = 0
KAD1 131613Z 24010KT 05/M06 A3026 RMK A01 T00521061  RH  044%=      5-min Rain = 0
KAD1 131614Z 25014KT 06/M06 A3026 RMK A01 T00561058  RH  044%=      5-min Rain = 0
KAD1 131615Z 23012KT 06/M06 A3026 RMK A01 T00571059  RH  043%=      5-min Rain = 0
KAD1 131616Z 23013KT 06/M06 A3026 RMK A01 T00561059  RH  043%=      5-min Rain = 0
KAD1 131617Z 23012KT 06/M06 A3026 RMK A01 T00571058  RH  043%=      5-min Rain = 0
KAD1 131618Z 24014KT 06/M06 A3026 RMK A01 T00581058  RH  043%=      5-min Rain = 0
KAD1 131619Z 25014KT 06/M06 A3026 RMK A01 T00571058  RH  043%=      5-min Rain = 0
KAD1 131620Z 24013KT 06/M06 A3027 RMK A01 T00571057  RH  044%=      5-min Rain = 0
KAD1 131621Z 24013KT 06/M06 A3027 RMK A01 T00571057  RH  044%=      5-min Rain = 0
KAD1 131622Z 23012KT 06/M06 A3027 RMK A01 T00591056  RH  044%=      5-min Rain = 0
KAD1 131623Z 23013KT 06/M06 A3027 RMK A01 T00611055  RH  043%=      5-min Rain = 0
KAD1 131624Z 24012KT 06/M06 A3027 RMK A01 T00621055  RH  043%=      5-min Rain = 0
KAD1 131625Z 24013KT 06/M05 A3027 RMK A01 T00641053  RH  043%=      5-min Rain = 0
KAD1 131626Z 23013KT 07/M05 A3026 RMK A01 T00651053  RH  042%=      5-min Rain = 0
KAD1 131627Z 25012KT 07/M05 A3026 RMK A01 T00661053  RH  042%=      5-min Rain = 0
KAD1 131628Z 25014KT 07/M05 A3026 RMK A01 T00651053  RH  042%=      5-min Rain = 0
KAD1 131629Z 25012KT 07/M05 A3026 RMK A01 T00651054  RH  042%=      5-min Rain = 0
KAD1 131630Z 24012KT 07/M05 A3027 RMK A01 T00681051  RH  042%=      5-min Rain = 0
KAD1 131631Z 25013KT 07/M05 A3027 RMK A01 T00701051  RH  042%=      5-min Rain = 0
KAD1 131632Z 24014KT 07/M05 A3027 RMK A01 T00691054  RH  041%=      5-min Rain = 0
KAD1 131633Z 24012KT 07/M06 A3027 RMK A01 T00651055  RH  042%=      5-min Rain = 0
KAD1 131634Z 24011KT 07/M05 A3027 RMK A01 T00671053  RH  042%=      5-min Rain = 0
KAD1 131635Z 24013KT 07/M05 A3027 RMK A01 T00681052  RH  042%=      5-min Rain = 0
KAD1 131636Z 26015KT 07/M05 A3027 RMK A01 T00701052  RH  042%=      5-min Rain = 0
KAD1 131637Z 25014KT 07/M05 A3027 RMK A01 T00691052  RH  042%=      5-min Rain = 0
KAD1 131638Z 25014KT 07/M05 A3027 RMK A01 T00671052  RH  042%=      5-min Rain = 0
KAD1 131639Z 24013KT 07/M05 A3027 RMK A01 T00681051  RH  042%=      5-min Rain = 0
KAD1 131640Z 25014KT 07/M05 A3027 RMK A01 T00701050  RH  042%=      5-min Rain = 0
KAD1 131641Z 25017KT 07/M05 A3027 RMK A01 T00701052  RH  042%=      5-min Rain = 0
KAD1 131642Z 25015KT 07/M05 A3027 RMK A01 T00671051  RH  043%=      5-min Rain = 0
KAD1 131643Z 25016KT 07/M05 A3027 RMK A01 T00661051  RH  043%=      5-min Rain = 0
KAD1 131644Z 24014KT 07/M05 A3027 RMK A01 T00661051  RH  043%=      5-min Rain = 0
KAD1 131645Z 24013KT 07/M05 A3027 RMK A01 T00671051  RH  043%=      5-min Rain = 0
KAD1 131646Z 24015KT 07/M05 A3027 RMK A01 T00681051  RH  042%=      5-min Rain = 0
KAD1 131647Z 24015KT 07/M05 A3027 RMK A01 T00691049  RH  043%=      5-min Rain = 0
KAD1 131648Z 25014G19KT 07/M05 A3027 RMK A01 T00701049  RH  043%=      5-min Rain = 0
KAD1 131649Z 24015KT 07/M05 A3027 RMK A01 T00701049  RH  042%=      5-min Rain = 0
KAD1 131650Z 24013KT 07/M05 A3027 RMK A01 T00691050  RH  042%=      5-min Rain = 0
KAD1 131651Z 24011KT 07/M05 A3027 RMK A01 T00711047  RH  043%=      5-min Rain = 0
KAD1 131652Z 24013KT 07/M05 A3027 RMK A01 T00741045  RH  042%=      5-min Rain = 0
KAD1 131653Z 25014KT 08/M05 A3027 RMK A01 T00751046  RH  042%=      5-min Rain = 0
KAD1 131654Z 25014KT 08/M05 A3027 RMK A01 T00751045  RH  042%=      5-min Rain = 0
KAD1 131655Z 24014KT 08/M04 A3027 RMK A01 T00761044  RH  042%=      5-min Rain = 0
KAD1 131656Z 24012KT 08/M05 A3027 RMK A01 T00751045  RH  042%=      5-min Rain = 0
KAD1 131657Z 25014KT 08/M05 A3027 RMK A01 T00751045  RH  043%=      5-min Rain = 0
KAD1 131658Z 25012KT 07/M05 A3027 RMK A01 T00741045  RH  042%=      5-min Rain = 0
KAD1 131659Z 25015KT 08/M05 A3027 RMK A01 T00751045  RH  042%=      5-min Rain = 0
KAD1 131700Z 25014KT 08/M05 A3027 RMK A01 T00751046  RH  042%=      5-min Rain = 0
KAD1 131701Z 26014KT 08/M05 A3027 RMK A01 T00751046  RH  042%=      5-min Rain = 0
KAD1 131702Z 25013KT 08/M05 A3027 RMK A01 T00771045  RH  042%=      5-min Rain = 0
KAD1 131703Z 25014KT 08/M05 A3027 RMK A01 T00781045  RH  042%=      5-min Rain = 0
KAD1 131704Z 25014KT 08/M05 A3027 RMK A01 T00791045  RH  041%=      5-min Rain = 0
KAD1 131705Z 25013KT 08/M05 A3027 RMK A01 T00791045  RH  041%=      5-min Rain = 0
KAD1 131706Z 25013KT 08/M05 A3027 RMK A01 T00791046  RH  041%=      5-min Rain = 0
KAD1 131707Z 24011KT 08/M05 A3027 RMK A01 T00771047  RH  041%=      5-min Rain = 0
KAD1 131708Z 23010KT 08/M05 A3027 RMK A01 T00781045  RH  041%=      5-min Rain = 0
KAD1 131709Z 24011KT 08/M04 A3027 RMK A01 T00821044  RH  040%=      5-min Rain = 0
KAD1 131710Z 25009KT 08/M04 A3027 RMK A01 T00841044  RH  040%=      5-min Rain = 0
KAD1 131711Z 24013KT 09/M04 A3027 RMK A01 T00871043  RH  040%=      5-min Rain = 0
KAD1 131712Z 24012KT 09/M04 A3027 RMK A01 T00861044  RH  039%=      5-min Rain = 0
KAD1 131713Z 23010KT 08/M04 A3027 RMK A01 T00841044  RH  040%=      5-min Rain = 0
KAD1 131714Z 23010KT 09/M04 A3027 RMK A01 T00851043  RH  040%=      5-min Rain = 0
KAD1 131715Z 24010KT 09/M04 A3027 RMK A01 T00871042  RH  040%=      5-min Rain = 0
KAD1 131716Z 25011KT 09/M04 A3027 RMK A01 T00861043  RH  040%=      5-min Rain = 0
KAD1 131717Z 25013KT 09/M04 A3027 RMK A01 T00861043  RH  040%=      5-min Rain = 0
KAD1 131718Z 24014KT 09/M04 A3027 RMK A01 T00861043  RH  040%=      5-min Rain = 0
KAD1 131719Z 24011KT 09/M04 A3027 RMK A01 T00861044  RH  040%=      5-min Rain = 0
KAD1 131720Z 24010KT 08/M05 A3027 RMK A01 T00831045  RH  040%=      5-min Rain = 0
KAD1 131721Z 24012KT 09/M04 A3027 RMK A01 T00851043  RH  040%=      5-min Rain = 0
KAD1 131722Z 23013KT 09/M05 A3027 RMK A01 T00851045  RH  040%=      5-min Rain = 0
KAD1 131723Z 25010KT 08/M04 A3027 RMK A01 T00841044  RH  040%=      5-min Rain = 0
KAD1 131724Z 24010KT 09/M04 A3027 RMK A01 T00871043  RH  040%=      5-min Rain = 0
KAD1 131725Z 24011KT 09/M04 A3027 RMK A01 T00891043  RH  039%=      5-min Rain = 0
KAD1 131726Z 24010KT 09/M05 A3027 RMK A01 T00881045  RH  039%=      5-min Rain = 0
KAD1 131727Z 23011KT 09/M05 A3027 RMK A01 T00871045  RH  039%=      5-min Rain = 0
KAD1 131728Z 23010KT 09/M04 A3026 RMK A01 T00871044  RH  039%=      5-min Rain = 0
KAD1 131729Z 25010KT 09/M05 A3027 RMK A01 T00871045  RH  039%=      5-min Rain = 0
KAD1 131730Z 24008KT 09/M04 A3027 RMK A01 T00871044  RH  039%=      5-min Rain = 0
KAD1 131731Z 25011KT 09/M04 A3027 RMK A01 T00901043  RH  039%=      5-min Rain = 0
KAD1 131732Z 24010KT 09/M05 A3026 RMK A01 T00891046  RH  038%=      5-min Rain = 0
KAD1 131733Z 24008KT 09/M04 A3027 RMK A01 T00891044  RH  039%=      5-min Rain = 0
KAD1 131734Z 25008KT 09/M04 A3026 RMK A01 T00931044  RH  038%=      5-min Rain = 0
KAD1 131735Z 23009KT 09/M05 A3026 RMK A01 T00931045  RH  037%=      5-min Rain = 0
KAD1 131736Z 25009KT 09/M05 A3026 RMK A01 T00911046  RH  038%=      5-min Rain = 0
KAD1 131737Z 26010KT 09/M05 A3027 RMK A01 T00901045  RH  038%=      5-min Rain = 0
KAD1 131738Z 24008KT 09/M05 A3026 RMK A01 T00921045  RH  038%=      5-min Rain = 0
KAD1 131739Z 25010KT 09/M04 A3027 RMK A01 T00941044  RH  038%=      5-min Rain = 0
KAD1 131740Z 22008KT 09/M05 A3027 RMK A01 T00921046  RH  037%=      5-min Rain = 0
KAD1 131741Z 25008KT 09/M05 A3026 RMK A01 T00901045  RH  038%=      5-min Rain = 0
KAD1 131742Z 26008KT 09/M05 A3026 RMK A01 T00911046  RH  038%=      5-min Rain = 0
KAD1 131743Z 26009KT 09/M05 A3026 RMK A01 T00901046  RH  038%=      5-min Rain = 0
KAD1 131744Z 26010KT 09/M05 A3026 RMK A01 T00921045  RH  038%=      5-min Rain = 0
KAD1 131745Z 24010KT 09/M05 A3026 RMK A01 T00941045  RH  037%=      5-min Rain = 0
KAD1 131746Z 26009KT 09/M05 A3026 RMK A01 T00941046  RH  037%=      5-min Rain = 0
KAD1 131747Z 26009KT 09/M05 A3026 RMK A01 T00941046  RH  037%=      5-min Rain = 0
KAD1 131748Z 26007G12KT 09/M05 A3026 RMK A01 T00931047  RH  037%=      5-min Rain = 0
KAD1 131749Z 27010KT 09/M05 A3026 RMK A01 T00921046  RH  037%=      5-min Rain = 0
KAD1 131750Z 26009KT 09/M05 A3026 RMK A01 T00921046  RH  037%=      5-min Rain = 0
KAD1 131751Z 27007KT 09/M05 A3026 RMK A01 T00921047  RH  037%=      5-min Rain = 0
KAD1 131752Z 27010KT 10/M04 A3026 RMK A01 T00961044  RH  037%=      5-min Rain = 0
KAD1 131753Z 26009KT 10/M05 A3026 RMK A01 T00971045  RH  036%=      5-min Rain = 0
KAD1 131754Z 26009KT 10/M05 A3026 RMK A01 T00981046  RH  036%=      5-min Rain = 0
KAD1 131755Z 26008KT 10/M05 A3026 RMK A01 T00991045  RH  036%=      5-min Rain = 0
KAD1 131756Z 26008KT 10/M05 A3026 RMK A01 T01001045  RH  036%=      5-min Rain = 0
KAD1 131757Z 27009KT 10/M05 A3026 RMK A01 T00991046  RH  036%=      5-min Rain = 0
KAD1 131758Z 28009KT 10/M05 A3026 RMK A01 T00981046  RH  036%=      5-min Rain = 0
KAD1 131759Z 25008KT 10/M05 A3026 RMK A01 T00981045  RH  036%=      5-min Rain = 0
KAD1 131800Z 24009KT 10/M04 A3026 RMK A01 T01021043  RH  036%=      5-min Rain = 0
KAD1 131801Z 26010KT 11/M04 A3026 RMK A01 T01061042  RH  035%=      5-min Rain = 0
KAD1 131802Z 26011KT 11/M04 A3026 RMK A01 T01081043  RH  034%=      5-min Rain = 0
KAD1 131803Z 26012KT 11/M05 A3026 RMK A01 T01071045  RH  034%=      5-min Rain = 0
KAD1 131804Z 25010KT 10/M05 A3026 RMK A01 T01041045  RH  035%=      5-min Rain = 0
KAD1 131805Z 26008KT 10/M05 A3026 RMK A01 T01041045  RH  035%=      5-min Rain = 0
KAD1 131806Z 26007KT 10/M05 A3026 RMK A01 T01031045  RH  035%=      5-min Rain = 0
KAD1 131807Z 26003KT 10/M05 A3025 RMK A01 T01021045  RH  035%=      5-min Rain = 0
KAD1 131808Z 28005KT 10/M04 A3025 RMK A01 T01031044  RH  035%=      5-min Rain = 0
KAD1 131809Z 27007KT 10/M05 A3025 RMK A01 T01031045  RH  035%=      5-min Rain = 0
KAD1 131810Z 27008KT 11/M04 A3025 RMK A01 T01051042  RH  035%=      5-min Rain = 0
KAD1 131811Z 26010KT 11/M04 A3025 RMK A01 T01081042  RH  035%=      5-min Rain = 0
KAD1 131812Z 25011KT 11/M04 A3025 RMK A01 T01101041  RH  034%=      5-min Rain = 0
KAD1 131813Z 25012KT 11/M04 A3025 RMK A01 T01131040  RH  034%=      5-min Rain = 0
KAD1 131814Z 25011KT 11/M04 A3025 RMK A01 T01131041  RH  034%=      5-min Rain = 0
KAD1 131815Z 24011KT 12/M04 A3025 RMK A01 T01161039  RH  033%=      5-min Rain = 0
KAD1 131816Z 24011KT 12/M04 A3025 RMK A01 T01151042  RH  033%=      5-min Rain = 0
KAD1 131817Z 25008KT 11/M04 A3025 RMK A01 T01121042  RH  034%=      5-min Rain = 0
KAD1 131818Z 26009KT 11/M04 A3025 RMK A01 T01131040  RH  034%=      5-min Rain = 0
KAD1 131819Z 27009KT 12/M04 A3025 RMK A01 T01171038  RH  034%=      5-min Rain = 0
KAD1 131820Z 26010KT 12/M04 A3025 RMK A01 T01181040  RH  033%=      5-min Rain = 0
KAD1 131821Z 26007KT 12/M04 A3024 RMK A01 T01151041  RH  033%=      5-min Rain = 0
KAD1 131822Z 27005KT 11/M04 A3024 RMK A01 T01141040  RH  034%=      5-min Rain = 0
KAD1 131823Z 26005KT 12/M04 A3024 RMK A01 T01171037  RH  034%=      5-min Rain = 0
KAD1 131824Z 27006KT 12/M04 A3024 RMK A01 T01191038  RH  033%=      5-min Rain = 0
KAD1 131825Z 25006KT 12/M04 A3024 RMK A01 T01211037  RH  033%=      5-min Rain = 0
KAD1 131826Z 27006KT 12/M04 A3024 RMK A01 T01211039  RH  033%=      5-min Rain = 0
KAD1 131827Z 25007KT 12/M04 A3024 RMK A01 T01201039  RH  033%=      5-min Rain = 0
KAD1 131828Z 23011KT 12/M04 A3024 RMK A01 T01241037  RH  032%=      5-min Rain = 0
KAD1 131829Z 23011KT 13/M04 A3024 RMK A01 T01271038  RH  032%=      5-min Rain = 0
KAD1 131830Z 23011KT 13/M04 A3024 RMK A01 T01301037  RH  031%=      5-min Rain = 0
KAD1 131831Z 24010KT 13/M04 A3024 RMK A01 T01321037  RH  031%=      5-min Rain = 0
KAD1 131832Z 24009G14KT 13/M04 A3024 RMK A01 T01331038  RH  030%=      5-min Rain = 0
KAD1 131833Z 22011KT 13/M04 A3024 RMK A01 T01321039  RH  030%=      5-min Rain = 0
KAD1 131834Z 22008KT 13/M04 A3024 RMK A01 T01301040  RH  030%=      5-min Rain = 0
KAD1 131835Z 24007KT 13/M04 A3024 RMK A01 T01301039  RH  031%=      5-min Rain = 0
KAD1 131836Z 26008KT 13/M04 A3024 RMK A01 T01321037  RH  031%=      5-min Rain = 0
KAD1 131837Z 27008KT 13/M04 A3024 RMK A01 T01331037  RH  030%=      5-min Rain = 0
KAD1 131838Z 26008KT 13/M04 A3024 RMK A01 T01341039  RH  030%=      5-min Rain = 0
KAD1 131839Z 26003KT 13/M04 A3024 RMK A01 T01341039  RH  030%=      5-min Rain = 0
KAD1 131840Z 29005KT 13/M04 A3024 RMK A01 T01331040  RH  030%=      5-min Rain = 0
KAD1 131841Z 31006KT 13/M04 A3024 RMK A01 T01291042  RH  030%=      5-min Rain = 0
KAD1 131842Z 28006KT 13/M04 A3024 RMK A01 T01281040  RH  031%=      5-min Rain = 0
KAD1 131843Z 26003G9KT 13/M04 A3024 RMK A01 T01281040  RH  031%=      5-min Rain = 0
KAD1 131844Z 26006KT 13/M04 A3024 RMK A01 T01311038  RH  031%=      5-min Rain = 0
KAD1 131845Z 24010KT 13/M04 A3024 RMK A01 T01341039  RH  030%=      5-min Rain = 0
KAD1 131846Z 23009KT 14/M04 A3024 RMK A01 T01361041  RH  029%=      5-min Rain = 0
KAD1 131847Z 24008KT 14/M04 A3024 RMK A01 T01361041  RH  029%=      5-min Rain = 0
KAD1 131848Z 26008KT 14/M04 A3024 RMK A01 T01371039  RH  029%=      5-min Rain = 0
KAD1 131849Z 25008KT 14/M04 A3024 RMK A01 T01411039  RH  029%=      5-min Rain = 0
KAD1 131850Z 26008KT 14/M04 A3023 RMK A01 T01421039  RH  028%=      5-min Rain = 0
KAD1 131851Z 28006KT 14/M04 A3023 RMK A01 T01401041  RH  028%=      5-min Rain = 0
KAD1 131852Z 27008KT 14/M04 A3023 RMK A01 T01371041  RH  029%=      5-min Rain = 0
KAD1 131853Z 26007KT 14/M04 A3023 RMK A01 T01391039  RH  029%=      5-min Rain = 0
KAD1 131854Z 25009KT 14/M04 A3023 RMK A01 T01411039  RH  028%=      5-min Rain = 0
KAD1 131855Z 25010KT 14/M04 A3023 RMK A01 T01441040  RH  028%=      5-min Rain = 0
KAD1 131856Z 23011KT 15/M04 A3023 RMK A01 T01481039  RH  027%=      5-min Rain = 0
KAD1 131857Z 24011KT 15/M04 A3023 RMK A01 T01501041  RH  026%=      5-min Rain = 0
KAD1 131858Z 26011KT 15/M04 A3023 RMK A01 T01501040  RH  027%=      5-min Rain = 0
KAD1 131859Z 25011KT 15/M04 A3023 RMK A01 T01521040  RH  026%=      5-min Rain = 0
KAD1 131900Z 25013KT 15/M04 A3023 RMK A01 T01511041  RH  026%=      5-min Rain = 0
KAD1 131901Z 25013KT 15/M04 A3023 RMK A01 T01501042  RH  026%=      5-min Rain = 0
KAD1 131902Z 23010KT 15/M04 A3023 RMK A01 T01471042  RH  027%=      5-min Rain = 0
KAD1 131903Z 24009KT 15/M04 A3023 RMK A01 T01461041  RH  027%=      5-min Rain = 0
KAD1 131904Z 25011KT 15/M04 A3023 RMK A01 T01481040  RH  027%=      5-min Rain = 0
KAD1 131905Z 25008KT 15/M04 A3023 RMK A01 T01471041  RH  027%=      5-min Rain = 0
KAD1 131906Z 25006KT 15/M04 A3023 RMK A01 T01451042  RH  027%=      5-min Rain = 0
KAD1 131907Z 27008KT 15/M04 A3023 RMK A01 T01461039  RH  028%=      5-min Rain = 0
KAD1 131908Z 26013KT 15/M04 A3023 RMK A01 T01491040  RH  027%=      5-min Rain = 0
KAD1 131909Z 26011KT 15/M04 A3023 RMK A01 T01501041  RH  027%=      5-min Rain = 0
KAD1 131910Z 24012KT 15/M04 A3023 RMK A01 T01501042  RH  026%=      5-min Rain = 0
KAD1 131911Z 26011KT 15/M04 A3022 RMK A01 T01491042  RH  026%=      5-min Rain = 0
KAD1 131912Z 27010KT 15/M04 A3022 RMK A01 T01491040  RH  027%=      5-min Rain = 0
KAD1 131913Z 25009KT 15/M04 A3022 RMK A01 T01481040  RH  027%=      5-min Rain = 0
KAD1 131914Z 25011KT 15/M04 A3022 RMK A01 T01481042  RH  027%=      5-min Rain = 0
KAD1 131915Z 25012KT 15/M04 A3022 RMK A01 T01491043  RH  026%=      5-min Rain = 0
KAD1 131916Z 26009KT 15/M04 A3022 RMK A01 T01481044  RH  026%=      5-min Rain = 0
KAD1 131917Z 26007KT 15/M04 A3022 RMK A01 T01491042  RH  026%=      5-min Rain = 0
KAD1 131918Z 26013KT 15/M04 A3022 RMK A01 T01531039  RH  026%=      5-min Rain = 0
KAD1 131919Z 25011KT 15/M04 A3022 RMK A01 T01521041  RH  026%=      5-min Rain = 0
KAD1 131920Z 26010KT 15/M04 A3022 RMK A01 T01531042  RH  026%=      5-min Rain = 0
KAD1 131921Z 27008KT 15/M04 A3022 RMK A01 T01531042  RH  026%=      5-min Rain = 0
KAD1 131922Z 27009KT 15/M04 A3022 RMK A01 T01541041  RH  026%=      5-min Rain = 0
KAD1 131923Z 26011KT 15/M04 A3022 RMK A01 T01541042  RH  026%=      5-min Rain = 0
KAD1 131924Z 25011KT 15/M04 A3022 RMK A01 T01541043  RH  025%=      5-min Rain = 0
KAD1 131925Z 25013KT 16/M04 A3022 RMK A01 T01561042  RH  025%=      5-min Rain = 0
KAD1 131926Z 24010KT 16/M04 A3022 RMK A01 T01551044  RH  025%=      5-min Rain = 0
KAD1 131927Z 26011KT 15/M04 A3022 RMK A01 T01541042  RH  026%=      5-min Rain = 0
KAD1 131928Z 26010KT 16/M04 A3022 RMK A01 T01561041  RH  025%=      5-min Rain = 0
KAD1 131929Z 26010KT 16/M04 A3022 RMK A01 T01561042  RH  025%=      5-min Rain = 0
KAD1 131930Z 27011KT 16/M04 A3022 RMK A01 T01561042  RH  025%=      5-min Rain = 0
KAD1 131931Z 26011KT 16/M04 A3022 RMK A01 T01571042  RH  025%=      5-min Rain = 0
KAD1 131932Z 27007KT 16/M04 A3021 RMK A01 T01581042  RH  025%=      5-min Rain = 0
KAD1 131933Z 27006KT 16/M04 A3021 RMK A01 T01581042  RH  025%=      5-min Rain = 0
KAD1 131934Z 26010KT 16/M04 A3021 RMK A01 T01581042  RH  025%=      5-min Rain = 0
KAD1 131935Z 27008KT 16/M04 A3021 RMK A01 T01601040  RH  025%=      5-min Rain = 0
KAD1 131936Z 28010KT 16/M04 A3021 RMK A01 T01601041  RH  025%=      5-min Rain = 0
KAD1 131937Z 28008KT 16/M04 A3021 RMK A01 T01581043  RH  025%=      5-min Rain = 0
KAD1 131938Z 26008KT 16/M04 A3021 RMK A01 T01551042  RH  025%=      5-min Rain = 0
KAD1 131939Z 26005KT 16/M04 A3021 RMK A01 T01551043  RH  025%=      5-min Rain = 0
KAD1 131940Z 30006KT 16/M04 A3021 RMK A01 T01561042  RH  025%=      5-min Rain = 0
KAD1 131941Z 28008KT 16/M04 A3021 RMK A01 T01581041  RH  025%=      5-min Rain = 0
KAD1 131942Z 28008KT 16/M04 A3021 RMK A01 T01591043  RH  025%=      5-min Rain = 0
KAD1 131943Z 26009KT 16/M04 A3021 RMK A01 T01601043  RH  024%=      5-min Rain = 0
KAD1 131944Z 26009KT 16/M04 A3021 RMK A01 T01631043  RH  024%=      5-min Rain = 0
KAD1 131945Z 25009KT 16/M04 A3021 RMK A01 T01621044  RH  024%=      5-min Rain = 0
KAD1 131946Z 26011KT 16/M04 A3021 RMK A01 T01611043  RH  024%=      5-min Rain = 0
KAD1 131947Z 28009KT 16/M04 A3021 RMK A01 T01621042  RH  024%=      5-min Rain = 0
KAD1 131948Z 28009KT 16/M04 A3021 RMK A01 T01641042  RH  024%=      5-min Rain = 0
KAD1 131949Z 26007KT 16/M05 A3021 RMK A01 T01621045  RH  024%=      5-min Rain = 0
KAD1 131950Z 25007KT 16/M04 A3021 RMK A01 T01621044  RH  024%=      5-min Rain = 0
KAD1 131951Z 25009KT 16/M05 A302 RMK A01 T01631045  RH  024%=      5-min Rain = 0
KAD1 131952Z 28008KT 17/M04 A302 RMK A01 T01651044  RH  023%=      5-min Rain = 0
KAD1 131953Z 27008KT 17/M05 A302 RMK A01 T01671046  RH  023%=      5-min Rain = 0
KAD1 131954Z 25009KT 17/M05 A302 RMK A01 T01681045  RH  023%=      5-min Rain = 0
KAD1 131955Z 26011KT 17/M04 A302 RMK A01 T01701044  RH  023%=      5-min Rain = 0
KAD1 131956Z 25010KT 17/M05 A302 RMK A01 T01711046  RH  022%=      5-min Rain = 0
KAD1 131957Z 25008KT 17/M05 A302 RMK A01 T01701046  RH  022%=      5-min Rain = 0
KAD1 131958Z 26008KT 17/M05 A302 RMK A01 T01701045  RH  023%=      5-min Rain = 0
KAD1 131959Z 25008KT 17/M05 A302 RMK A01 T01711045  RH  023%=      5-min Rain = 0
KAD1 132000Z 26011KT 17/M05 A302 RMK A01 T01711045  RH  022%=      5-min Rain = 0
KAD1 132001Z 26011KT 17/M05 A302 RMK A01 T01711046  RH  022%=      5-min Rain = 0
KAD1 132002Z 26012KT 17/M05 A302 RMK A01 T01701047  RH  022%=      5-min Rain = 0
KAD1 132003Z 26010KT 17/M05 A302 RMK A01 T01691048  RH  022%=      5-min Rain = 0
KAD1 132004Z 26011KT 17/M05 A302 RMK A01 T01691048  RH  022%=      5-min Rain = 0
KAD1 132005Z 25011KT 17/M05 A3019 RMK A01 T01701049  RH  022%=      5-min Rain = 0
KAD1 132006Z 25009KT 17/M05 A3019 RMK A01 T01731048  RH  022%=      5-min Rain = 0
KAD1 132007Z 25009KT 17/M05 A3019 RMK A01 T01741048  RH  022%=      5-min Rain = 0
KAD1 132008Z 26009KT 17/M05 A3019 RMK A01 T01731049  RH  021%=      5-min Rain = 0
KAD1 132009Z 26009KT 17/M05 A3019 RMK A01 T01741051  RH  021%=      5-min Rain = 0
KAD1 132010Z 26009KT 18/M05 A3019 RMK A01 T01751051  RH  021%=      5-min Rain = 0
KAD1 132011Z 25009KT 17/M05 A3019 RMK A01 T01741051  RH  021%=      5-min Rain = 0
KAD1 132012Z 25007KT 17/M05 A3019 RMK A01 T01721053  RH  021%=      5-min Rain = 0
KAD1 132013Z 25008KT 17/M05 A3019 RMK A01 T01711051  RH  021%=      5-min Rain = 0
KAD1 132014Z 25009KT 17/M05 A3019 RMK A01 T01711049  RH  022%=      5-min Rain = 0
KAD1 132015Z 26008KT 17/M05 A3019 RMK A01 T01721051  RH  021%=      5-min Rain = 0
KAD1 132016Z 28006KT 17/M05 A3019 RMK A01 T01711051  RH  021%=      5-min Rain = 0
KAD1 132017Z 28008KT 17/M05 A3019 RMK A01 T01701050  RH  022%=      5-min Rain = 0
KAD1 132018Z 27010KT 17/M05 A3019 RMK A01 T01711048  RH  022%=      5-min Rain = 0
KAD1 132019Z 28007KT 17/M05 A3019 RMK A01 T01721049  RH  022%=      5-min Rain = 0
KAD1 132020Z 28006KT 17/M05 A3019 RMK A01 T01701050  RH  022%=      5-min Rain = 0
KAD1 132021Z 27009KT 17/M05 A3019 RMK A01 T01691049  RH  022%=      5-min Rain = 0
KAD1 132022Z 25008KT 17/M05 A3019 RMK A01 T01691050  RH  022%=      5-min Rain = 0
KAD1 132023Z 26006KT 17/M05 A3019 RMK A01 T01701049  RH  022%=      5-min Rain = 0
KAD1 132024Z 27009KT 17/M05 A3019 RMK A01 T01731047  RH  022%=      5-min Rain = 0
KAD1 132025Z 28008KT 18/M05 A3019 RMK A01 T01751048  RH  021%=      5-min Rain = 0
KAD1 132026Z 27006KT 18/M05 A3019 RMK A01 T01761049  RH  021%=      5-min Rain = 0
KAD1 132027Z 26008KT 18/M05 A3019 RMK A01 T01751048  RH  021%=      5-min Rain = 0
KAD1 132028Z 27007KT 18/M05 A3019 RMK A01 T01771048  RH  021%=      5-min Rain = 0
KAD1 132029Z 27008KT 18/M05 A3019 RMK A01 T01791048  RH  021%=      5-min Rain = 0
KAD1 132030Z 27009KT 18/M05 A3019 RMK A01 T01791048  RH  021%=      5-min Rain = 0
KAD1 132031Z 27006KT 18/M05 A3019 RMK A01 T01791050  RH  021%=      5-min Rain = 0
KAD1 132032Z 28007KT 18/M05 A3019 RMK A01 T01791049  RH  021%=      5-min Rain = 0
KAD1 132033Z 27011KT 18/M05 A3019 RMK A01 T01801049  RH  021%=      5-min Rain = 0
KAD1 132034Z 27007KT 18/M05 A3019 RMK A01 T01801049  RH  021%=      5-min Rain = 0
KAD1 132035Z 27007KT 18/M05 A3019 RMK A01 T01801050  RH  020%=      5-min Rain = 0
KAD1 132036Z 27006KT 18/M05 A3019 RMK A01 T01791051  RH  020%=      5-min Rain = 0
KAD1 132037Z 27008KT 18/M05 A3019 RMK A01 T01801051  RH  020%=      5-min Rain = 0
KAD1 132038Z 27008KT 18/M05 A3019 RMK A01 T01801051  RH  020%=      5-min Rain = 0
KAD1 132039Z 27005G10KT 18/M05 A3018 RMK A01 T01821052  RH  020%=      5-min Rain = 0
KAD1 132040Z 24005KT 18/M05 A3018 RMK A01 T01821052  RH  020%=      5-min Rain = 0
KAD1 132041Z 28006KT 18/M05 A3018 RMK A01 T01821050  RH  020%=      5-min Rain = 0
KAD1 132042Z 27010KT 18/M05 A3018 RMK A01 T01811051  RH  020%=      5-min Rain = 0
KAD1 132043Z 26010KT 18/M05 A3018 RMK A01 T01811052  RH  020%=      5-min Rain = 0
KAD1 132044Z 26007KT 18/M05 A3018 RMK A01 T01821052  RH  020%=      5-min Rain = 0
KAD1 132045Z 27007KT 19/M05 A3018 RMK A01 T01851051  RH  020%=      5-min Rain = 0
KAD1 132046Z 27006KT 19/M05 A3018 RMK A01 T01871052  RH  019%=      5-min Rain = 0
KAD1 132047Z 27007KT 19/M05 A3018 RMK A01 T01911049  RH  019%=      5-min Rain = 0
KAD1 132048Z 25008G13KT 19/M05 A3018 RMK A01 T01931050  RH  019%=      5-min Rain = 0
KAD1 132049Z 25015KT 19/M07 A3018 RMK A01 T01941066  RH  017%=      5-min Rain = 0
KAD1 132050Z 24013G18KT 20/M07 A3018 RMK A01 T01951073  RH  016%=      5-min Rain = 0
KAD1 132051Z 24014KT 19/M08 A3017 RMK A01 T01941078  RH  015%=      5-min Rain = 0
KAD1 132052Z 25017G22KT 19/M08 A3018 RMK A01 T01941079  RH  015%=      5-min Rain = 0
KAD1 132053Z 25014KT 19/M08 A3017 RMK A01 T01941079  RH  015%=      5-min Rain = 0
KAD1 132054Z 25012KT 19/M08 A3017 RMK A01 T01941078  RH  015%=      5-min Rain = 0
KAD1 132055Z 25012KT 19/M08 A3017 RMK A01 T01941077  RH  015%=      5-min Rain = 0
KAD1 132056Z 25014KT 20/M08 A3017 RMK A01 T01951075  RH  015%=      5-min Rain = 0
KAD1 132057Z 25016KT 20/M08 A3017 RMK A01 T01951077  RH  015%=      5-min Rain = 0
KAD1 132058Z 23017KT 19/M08 A3017 RMK A01 T01931080  RH  015%=      5-min Rain = 0
KAD1 132059Z 22013KT 19/M08 A3017 RMK A01 T01921080  RH  015%=      5-min Rain = 0
KAD1 132100Z 24013KT 19/M08 A3018 RMK A01 T01921079  RH  015%=      5-min Rain = 0
KAD1 132101Z 22010KT 19/M08 A3018 RMK A01 T01931075  RH  016%=      5-min Rain = 0
KAD1 132102Z 23011KT 20/M07 A3018 RMK A01 T01951073  RH  016%=      5-min Rain = 0
KAD1 132103Z 26012KT 20/M07 A3018 RMK A01 T01981071  RH  016%=      5-min Rain = 0
KAD1 132104Z 26009G14KT 20/M07 A3018 RMK A01 T02001071  RH  015%=      5-min Rain = 0
KAD1 132105Z 26014KT 20/M07 A3018 RMK A01 T02021074  RH  015%=      5-min Rain = 0
KAD1 132106Z 25015KT 20/M08 A3018 RMK A01 T02011076  RH  015%=      5-min Rain = 0
KAD1 132107Z 26013KT 20/M08 A3018 RMK A01 T02001075  RH  015%=      5-min Rain = 0
KAD1 132108Z 26013KT 20/M07 A3018 RMK A01 T02011073  RH  015%=      5-min Rain = 0
KAD1 132109Z 25015KT 20/M08 A3018 RMK A01 T02021080  RH  014%=      5-min Rain = 0
KAD1 132110Z 25014KT 20/M09 A3018 RMK A01 T02021091  RH  013%=      5-min Rain = 0
KAD1 132111Z 23014G21KT 20/M09 A3018 RMK A01 T02031092  RH  013%=      5-min Rain = 0
KAD1 132112Z 23017KT 20/M09 A3018 RMK A01 T02041092  RH  013%=      5-min Rain = 0
KAD1 132113Z 24016KT 20/M09 A3018 RMK A01 T02011093  RH  013%=      5-min Rain = 0
KAD1 132114Z 24014KT 20/M09 A3018 RMK A01 T02001089  RH  013%=      5-min Rain = 0
KAD1 132115Z 25015KT 20/M09 A3018 RMK A01 T01981089  RH  014%=      5-min Rain = 0
KAD1 132116Z 26015KT 20/M09 A3018 RMK A01 T01971091  RH  013%=      5-min Rain = 0
KAD1 132117Z 26015KT 20/M09 A3018 RMK A01 T01961090  RH  014%=      5-min Rain = 0
KAD1 132118Z 25016KT 20/M09 A3018 RMK A01 T01961088  RH  014%=      5-min Rain = 0
KAD1 132119Z 24015KT 20/M09 A3018 RMK A01 T01961086  RH  014%=      5-min Rain = 0
KAD1 132120Z 26010KT 20/M08 A3018 RMK A01 T01961084  RH  014%=      5-min Rain = 0
KAD1 132121Z 25011KT 20/M08 A3018 RMK A01 T01971083  RH  014%=      5-min Rain = 0
KAD1 132122Z 26012KT 20/M08 A3018 RMK A01 T02001082  RH  014%=      5-min Rain = 0
KAD1 132123Z 26014KT 20/M08 A3018 RMK A01 T02011083  RH  014%=      5-min Rain = 0
KAD1 132124Z 26014KT 20/M08 A3018 RMK A01 T02011084  RH  014%=      5-min Rain = 0
KAD1 132125Z 27012KT 20/M08 A3018 RMK A01 T02001083  RH  014%=      5-min Rain = 0
KAD1 132126Z 26012KT 20/M08 A3017 RMK A01 T02001083  RH  014%=      5-min Rain = 0
KAD1 132127Z 27013KT 20/M08 A3017 RMK A01 T02001084  RH  014%=      5-min Rain = 0
KAD1 132128Z 26012KT 20/M08 A3017 RMK A01 T01991084  RH  014%=      5-min Rain = 0
KAD1 132129Z 27011KT 20/M08 A3017 RMK A01 T01991084  RH  014%=      5-min Rain = 0
KAD1 132130Z 27013KT 20/M09 A3017 RMK A01 T01981085  RH  014%=      5-min Rain = 0
KAD1 132131Z 27013KT 20/M09 A3017 RMK A01 T01961086  RH  014%=      5-min Rain = 0
KAD1 132132Z 27012KT 20/M09 A3017 RMK A01 T01961087  RH  014%=      5-min Rain = 0
KAD1 132133Z 27011KT 20/M09 A3017 RMK A01 T01971085  RH  014%=      5-min Rain = 0
KAD1 132134Z 25013KT 20/M09 A3017 RMK A01 T01981086  RH  014%=      5-min Rain = 0
KAD1 132135Z 25013KT 20/M09 A3017 RMK A01 T01991088  RH  014%=      5-min Rain = 0
KAD1 132136Z 25011KT 20/M09 A3017 RMK A01 T02001089  RH  013%=      5-min Rain = 0
KAD1 132137Z 26010KT 20/M09 A3017 RMK A01 T02001090  RH  013%=      5-min Rain = 0
KAD1 132138Z 26010KT 20/M09 A3017 RMK A01 T02001090  RH  013%=      5-min Rain = 0
KAD1 132139Z 26011KT 20/M09 A3017 RMK A01 T02001091  RH  013%=      5-min Rain = 0
KAD1 132140Z 25014KT 20/M09 A3017 RMK A01 T02001093  RH  013%=      5-min Rain = 0
KAD1 132141Z 24011KT 20/M10 A3017 RMK A01 T01991095  RH  013%=      5-min Rain = 0
KAD1 132142Z 25011KT 20/M09 A3017 RMK A01 T02001094  RH  013%=      5-min Rain = 0
KAD1 132143Z 24010KT 20/M10 A3017 RMK A01 T02011095  RH  013%=      5-min Rain = 0
KAD1 132144Z 25015KT 20/M10 A3017 RMK A01 T02031095  RH  013%=      5-min Rain = 0
KAD1 132145Z 25014KT 20/M10 A3017 RMK A01 T02031100  RH  012%=      5-min Rain = 0
KAD1 132146Z 25014KT 20/M10 A3017 RMK A01 T02031102  RH  012%=      5-min Rain = 0
KAD1 132147Z 25011KT 20/M10 A3017 RMK A01 T02021101  RH  012%=      5-min Rain = 0
KAD1 132148Z 26009KT 20/M10 A3017 RMK A01 T02021101  RH  012%=      5-min Rain = 0
KAD1 132149Z 25012KT 20/M10 A3017 RMK A01 T02031101  RH  012%=      5-min Rain = 0
KAD1 132150Z 24013KT 20/M10 A3017 RMK A01 T02041101  RH  012%=      5-min Rain = 0
KAD1 132151Z 26013KT 20/M10 A3017 RMK A01 T02031103  RH  012%=      5-min Rain = 0
KAD1 132152Z 26014KT 20/M10 A3017 RMK A01 T02031104  RH  012%=      5-min Rain = 0
KAD1 132153Z 23015KT 20/M11 A3017 RMK A01 T02031106  RH  011%=      5-min Rain = 0
KAD1 132154Z 23011KT 20/M11 A3017 RMK A01 T02041110  RH  011%=      5-min Rain = 0
KAD1 132155Z 22013KT 21/M11 A3017 RMK A01 T02051110  RH  011%=      5-min Rain = 0
KAD1 132156Z 22015KT 21/M11 A3017 RMK A01 T02051112  RH  011%=      5-min Rain = 0
KAD1 132157Z 22018KT 21/M11 A3017 RMK A01 T02051111  RH  011%=      5-min Rain = 0
KAD1 132158Z 23015KT 20/M11 A3017 RMK A01 T02041110  RH  011%=      5-min Rain = 0
KAD1 132159Z 23018G23KT 20/M11 A3016 RMK A01 T02031109  RH  011%=      5-min Rain = 0
KAD1 132200Z 23015KT 20/M11 A3016 RMK A01 T02031111  RH  011%=      5-min Rain = 0
KAD1 132201Z 23014KT 20/M11 A3017 RMK A01 T02021112  RH  011%=      5-min Rain = 0
KAD1 132202Z 23019KT 20/M12 A3017 RMK A01 T02031116  RH  011%=      5-min Rain = 0
KAD1 132203Z 23016KT 20/M12 A3017 RMK A01 T02021122  RH  010%=      5-min Rain = 0
KAD1 132204Z 23016KT 20/M12 A3017 RMK A01 T02011121  RH  010%=      5-min Rain = 0
KAD1 132205Z 23016KT 20/M12 A3017 RMK A01 T02001119  RH  011%=      5-min Rain = 0
KAD1 132206Z 23015KT 20/M12 A3017 RMK A01 T02011117  RH  011%=      5-min Rain = 0
KAD1 132207Z 24015KT 20/M12 A3017 RMK A01 T02001117  RH  011%=      5-min Rain = 0
KAD1 132208Z 24013KT 20/M12 A3017 RMK A01 T02011116  RH  011%=      5-min Rain = 0
KAD1 132209Z 24014KT 20/M12 A3017 RMK A01 T02011115  RH  011%=      5-min Rain = 0
KAD1 132210Z 24016KT 20/M12 A3016 RMK A01 T02011115  RH  011%=      5-min Rain = 0
KAD1 132211Z 24014KT 20/M12 A3017 RMK A01 T02001115  RH  011%=      5-min Rain = 0
KAD1 132212Z 23015KT 20/M12 A3017 RMK A01 T02001117  RH  011%=      5-min Rain = 0
KAD1 132213Z 23016KT 20/M12 A3017 RMK A01 T01991117  RH  011%=      5-min Rain = 0
KAD1 132214Z 24015KT 20/M12 A3017 RMK A01 T01981118  RH  011%=      5-min Rain = 0
KAD1 132215Z 24015KT 20/M12 A3017 RMK A01 T01961119  RH  011%=      5-min Rain = 0
KAD1 132216Z 23018KT 20/M12 A3017 RMK A01 T01961119  RH  011%=      5-min Rain = 0
KAD1 132217Z 23016KT 20/M12 A3017 RMK A01 T01961119  RH  011%=      5-min Rain = 0
KAD1 132218Z 23016KT 20/M12 A3017 RMK A01 T01961119  RH  011%=      5-min Rain = 0
KAD1 132219Z 22015KT 20/M12 A3017 RMK A01 T01951119  RH  011%=      5-min Rain = 0
KAD1 132220Z 24012KT 20/M12 A3017 RMK A01 T01951118  RH  011%=      5-min Rain = 0
KAD1 132221Z 24014G21KT 20/M12 A3017 RMK A01 T01961116  RH  011%=      5-min Rain = 0
KAD1 132222Z 24017KT 20/M12 A3017 RMK A01 T01971119  RH  011%=      5-min Rain = 0
KAD1 132223Z 23015KT 20/M12 A3017 RMK A01 T01971119  RH  011%=      5-min Rain = 0
KAD1 132224Z 23014G19KT 20/M12 A3017 RMK A01 T01971118  RH  011%=      5-min Rain = 0
KAD1 132225Z 24013KT 20/M12 A3017 RMK A01 T01971117  RH  011%=      5-min Rain = 0
KAD1 132226Z 24014KT 20/M12 A3017 RMK A01 T01981117  RH  011%=      5-min Rain = 0
KAD1 132227Z 23014KT 20/M12 A3017 RMK A01 T01981117  RH  011%=      5-min Rain = 0
KAD1 132228Z 24015KT 20/M12 A3017 RMK A01 T01971118  RH  011%=      5-min Rain = 0
KAD1 132229Z 23014KT 20/M12 A3017 RMK A01 T01951119  RH  011%=      5-min Rain = 0
KAD1 132230Z 23014KT 20/M12 A3017 RMK A01 T01951122  RH  011%=      5-min Rain = 0
KAD1 132231Z 23015KT 19/M12 A3017 RMK A01 T01941122  RH  011%=      5-min Rain = 0
KAD1 132232Z 22015KT 19/M12 A3017 RMK A01 T01941122  RH  011%=      5-min Rain = 0
KAD1 132233Z 23015KT 19/M12 A3016 RMK A01 T01941122  RH  011%=      5-min Rain = 0
KAD1 132234Z 23017KT 19/M12 A3016 RMK A01 T01941121  RH  011%=      5-min Rain = 0
KAD1 132235Z 23016KT 19/M12 A3016 RMK A01 T01941119  RH  011%=      5-min Rain = 0
KAD1 132236Z 23015KT 19/M12 A3016 RMK A01 T01931119  RH  011%=      5-min Rain = 0
KAD1 132237Z 23013KT 19/M12 A3016 RMK A01 T01931119  RH  011%=      5-min Rain = 0
KAD1 132238Z 23013KT 19/M12 A3016 RMK A01 T01931119  RH  011%=      5-min Rain = 0
KAD1 132239Z 23015KT 19/M12 A3016 RMK A01 T01921120  RH  011%=      5-min Rain = 0
KAD1 132240Z 23015KT 19/M12 A3016 RMK A01 T01911120  RH  011%=      5-min Rain = 0
KAD1 132241Z 23016KT 19/M12 A3016 RMK A01 T01901119  RH  011%=      5-min Rain = 0
KAD1 132242Z 23015KT 19/M12 A3016 RMK A01 T01901119  RH  011%=      5-min Rain = 0
KAD1 132243Z 23015KT 19/M12 A3016 RMK A01 T01891119  RH  011%=      5-min Rain = 0
KAD1 132244Z 23016KT 19/M12 A3016 RMK A01 T01891120  RH  011%=      5-min Rain = 0
KAD1 132245Z 23015KT 19/M12 A3017 RMK A01 T01891121  RH  011%=      5-min Rain = 0
KAD1 132246Z 24016KT 19/M12 A3017 RMK A01 T01891122  RH  011%=      5-min Rain = 0
KAD1 132247Z 24013KT 19/M12 A3017 RMK A01 T01901123  RH  011%=      5-min Rain = 0
KAD1 132248Z 23013KT 19/M12 A3017 RMK A01 T01901122  RH  011%=      5-min Rain = 0
KAD1 132249Z 23013KT 19/M12 A3017 RMK A01 T01901122  RH  011%=      5-min Rain = 0
KAD1 132250Z 23014KT 19/M12 A3017 RMK A01 T01911122  RH  011%=      5-min Rain = 0
KAD1 132251Z 22015KT 19/M12 A3017 RMK A01 T01911121  RH  011%=      5-min Rain = 0
KAD1 132252Z 22012G17KT 19/M12 A3017 RMK A01 T01911121  RH  011%=      5-min Rain = 0
KAD1 132253Z 22014KT 19/M12 A3017 RMK A01 T01911119  RH  011%=      5-min Rain = 0
KAD1 132254Z 23015KT 19/M12 A3017 RMK A01 T01911120  RH  011%=      5-min Rain = 0
KAD1 132255Z 23014KT 19/M12 A3017 RMK A01 T01911121  RH  011%=      5-min Rain = 0
KAD1 132256Z 23012KT 19/M12 A3017 RMK A01 T01911121  RH  011%=      5-min Rain = 0
KAD1 132257Z 22011G16KT 19/M12 A3017 RMK A01 T01911120  RH  011%=      5-min Rain = 0
KAD1 132258Z 23012KT 19/M12 A3017 RMK A01 T01901120  RH  011%=      5-min Rain = 0
KAD1 132259Z 23014KT 19/M12 A3017 RMK A01 T01901120  RH  011%=      5-min Rain = 0
KAD1 132300Z 23014KT 19/M12 A3017 RMK A01 T01901120  RH  011%=      5-min Rain = 0
KAD1 132301Z 23014KT 19/M12 A3017 RMK A01 T01891120  RH  011%=      5-min Rain = 0
KAD1 132302Z 24013KT 19/M12 A3017 RMK A01 T01891120  RH  011%=      5-min Rain = 0
KAD1 132303Z 24011KT 19/M12 A3017 RMK A01 T01891120  RH  011%=      5-min Rain = 0
KAD1 132304Z 23013KT 19/M12 A3017 RMK A01 T01891120  RH  011%=      5-min Rain = 0
KAD1 132305Z 22012KT 19/M12 A3017 RMK A01 T01881119  RH  011%=      5-min Rain = 0
KAD1 132306Z 22012KT 19/M12 A3017 RMK A01 T01881119  RH  011%=      5-min Rain = 0
KAD1 132307Z 22010G15KT 19/M12 A3017 RMK A01 T01871119  RH  011%=      5-min Rain = 0
KAD1 132308Z 22011KT 19/M12 A3017 RMK A01 T01871119  RH  011%=      5-min Rain = 0
KAD1 132309Z 22010KT 19/M12 A3017 RMK A01 T01861118  RH  012%=      5-min Rain = 0
KAD1 132310Z 23011KT 19/M12 A3017 RMK A01 T01861118  RH  012%=      5-min Rain = 0
KAD1 132311Z 23012KT 19/M12 A3017 RMK A01 T01861118  RH  012%=      5-min Rain = 0
KAD1 132312Z 23013KT 19/M12 A3017 RMK A01 T01851118  RH  012%=      5-min Rain = 0
KAD1 132313Z 23012KT 19/M12 A3018 RMK A01 T01851116  RH  012%=      5-min Rain = 0
KAD1 132314Z 22013KT 19/M11 A3017 RMK A01 T01851114  RH  012%=      5-min Rain = 0
KAD1 132315Z 22013KT 19/M11 A3017 RMK A01 T01851112  RH  012%=      5-min Rain = 0
KAD1 132316Z 21010KT 18/M11 A3017 RMK A01 T01841111  RH  012%=      5-min Rain = 0
KAD1 132317Z 21014KT 18/M11 A3017 RMK A01 T01841110  RH  013%=      5-min Rain = 0
KAD1 132318Z 21013KT 18/M11 A3017 RMK A01 T01831111  RH  013%=      5-min Rain = 0
KAD1 132319Z 21013KT 18/M11 A3017 RMK A01 T01831111  RH  012%=      5-min Rain = 0
KAD1 132320Z 21014KT 18/M11 A3017 RMK A01 T01831113  RH  012%=      5-min Rain = 0
KAD1 132321Z 22013KT 18/M11 A3018 RMK A01 T01821114  RH  012%=      5-min Rain = 0
KAD1 132322Z 22013KT 18/M12 A3018 RMK A01 T01821115  RH  012%=      5-min Rain = 0
KAD1 132323Z 22013KT 18/M11 A3018 RMK A01 T01831114  RH  012%=      5-min Rain = 0
KAD1 132324Z 22012KT 19/M11 A3018 RMK A01 T01851113  RH  012%=      5-min Rain = 0
KAD1 132325Z 21010KT 19/M11 A3018 RMK A01 T01851112  RH  012%=      5-min Rain = 0
KAD1 132326Z 22012KT 19/M11 A3018 RMK A01 T01851112  RH  012%=      5-min Rain = 0
KAD1 132327Z 21011KT 19/M11 A3018 RMK A01 T01851111  RH  012%=      5-min Rain = 0
KAD1 132328Z 22012KT 18/M11 A3018 RMK A01 T01841111  RH  012%=      5-min Rain = 0
KAD1 132329Z 22011KT 18/M11 A3018 RMK A01 T01841111  RH  012%=      5-min Rain = 0
KAD1 132330Z 22012KT 18/M11 A3018 RMK A01 T01831111  RH  013%=      5-min Rain = 0
KAD1 132331Z 21014KT 18/M11 A3018 RMK A01 T01831111  RH  013%=      5-min Rain = 0
KAD1 132332Z 21011KT 18/M11 A3018 RMK A01 T01831110  RH  013%=      5-min Rain = 0
KAD1 132333Z 21013KT 18/M11 A3018 RMK A01 T01841110  RH  012%=      5-min Rain = 0
KAD1 132334Z 22015KT 19/M11 A3018 RMK A01 T01851112  RH  012%=      5-min Rain = 0
KAD1 132335Z 21013KT 19/M11 A3018 RMK A01 T01851112  RH  012%=      5-min Rain = 0
KAD1 132336Z 22012KT 19/M11 A3018 RMK A01 T01851112  RH  012%=      5-min Rain = 0
KAD1 132337Z 22013KT 18/M11 A3018 RMK A01 T01831113  RH  012%=      5-min Rain = 0
KAD1 132338Z 22012KT 18/M11 A3018 RMK A01 T01831114  RH  012%=      5-min Rain = 0
KAD1 132339Z 22011KT 18/M11 A3018 RMK A01 T01821114  RH  012%=      5-min Rain = 0
KAD1 132340Z 22013KT 18/M11 A3018 RMK A01 T01831113  RH  012%=      5-min Rain = 0
KAD1 132341Z 22014KT 18/M11 A3018 RMK A01 T01831113  RH  012%=      5-min Rain = 0
KAD1 132342Z 22014KT 18/M11 A3018 RMK A01 T01821114  RH  012%=      5-min Rain = 0
KAD1 132343Z 22013KT 18/M11 A3018 RMK A01 T01831114  RH  012%=      5-min Rain = 0
KAD1 132344Z 22014KT 18/M11 A3018 RMK A01 T01821114  RH  012%=      5-min Rain = 0
KAD1 132345Z 22014KT 18/M11 A3018 RMK A01 T01811114  RH  012%=      5-min Rain = 0
KAD1 132346Z 22013KT 18/M11 A3018 RMK A01 T01811114  RH  012%=      5-min Rain = 0
KAD1 132347Z 22013KT 18/M11 A3018 RMK A01 T01811114  RH  012%=      5-min Rain = 0
KAD1 132348Z 22012KT 18/M11 A3018 RMK A01 T01801114  RH  012%=      5-min Rain = 0
KAD1 132349Z 22010KT 18/M11 A3018 RMK A01 T01801113  RH  013%=      5-min Rain = 0
KAD1 132350Z 22012KT 18/M11 A3018 RMK A01 T01781112  RH  013%=      5-min Rain = 0
KAD1 132351Z 22012KT 18/M11 A3018 RMK A01 T01771113  RH  013%=      5-min Rain = 0
KAD1 132352Z 22011KT 18/M11 A3018 RMK A01 T01751113  RH  013%=      5-min Rain = 0
KAD1 132353Z 22011KT 17/M11 A3018 RMK A01 T01741111  RH  013%=      5-min Rain = 0
KAD1 132354Z 22010KT 17/M11 A3018 RMK A01 T01731112  RH  013%=      5-min Rain = 0
KAD1 132355Z 22012KT 17/M11 A3018 RMK A01 T01711112  RH  013%=      5-min Rain = 0
KAD1 132356Z 22011KT 17/M11 A3018 RMK A01 T01711111  RH  014%=      5-min Rain = 0
KAD1 132357Z 22012KT 17/M11 A3018 RMK A01 T01711110  RH  014%=      5-min Rain = 0
KAD1 132358Z 22012KT 17/M11 A3019 RMK A01 T01701110  RH  014%=      5-min Rain = 0
KAD1 132359Z 22011KT 17/M11 A3018 RMK A01 T01701109  RH  014%=      5-min Rain = 0
KAD1 140000Z 22011KT 17/M11 A3018 RMK A01 T01691109  RH  014%=      5-min Rain = 0
KAD1 140001Z 22011KT 17/M11 A3018 RMK A01 T01681109  RH  014%=      5-min Rain = 0
KAD1 140002Z 22011KT 17/M11 A3019 RMK A01 T01681109  RH  014%=      5-min Rain = 0
KAD1 140003Z 22010KT 17/M11 A3019 RMK A01 T01671109  RH  014%=      5-min Rain = 0
KAD1 140004Z 22010KT 17/M11 A3018 RMK A01 T01651109  RH  014%=      5-min Rain = 0
KAD1 140005Z 22010KT 16/M11 A3018 RMK A01 T01641109  RH  014%=      5-min Rain = 0
KAD1 140011Z 22009KT 16/M11 A3018 RMK A01 T01551107  RH  015%=      5-min Rain = 0
KAD1 140012Z 22010KT 15/M11 A3018 RMK A01 T01541106  RH  016%=      5-min Rain = 0
KAD1 140013Z 22010KT 15/M11 A3018 RMK A01 T01531105  RH  016%=      5-min Rain = 0
KAD1 140014Z 22010KT 15/M10 A3018 RMK A01 T01531103  RH  016%=      5-min Rain = 0
KAD1 140015Z 22011KT 15/M10 A3018 RMK A01 T01531102  RH  016%=      5-min Rain = 0
KAD1 140016Z 22010KT 15/M10 A3018 RMK A01 T01521101  RH  017%=      5-min Rain = 0
KAD1 140017Z 22011KT 15/M10 A3018 RMK A01 T01521100  RH  017%=      5-min Rain = 0
KAD1 140018Z 22010KT 15/M10 A3019 RMK A01 T01521098  RH  017%=      5-min Rain = 0
KAD1 140019Z 22010KT 15/M10 A3019 RMK A01 T01521098  RH  017%=      5-min Rain = 0
KAD1 140020Z 22010KT 15/M10 A3019 RMK A01 T01521097  RH  017%=      5-min Rain = 0
KAD1 140021Z 22011KT 15/M10 A3019 RMK A01 T01511097  RH  017%=      5-min Rain = 0
KAD1 140022Z 21010KT 15/M10 A3019 RMK A01 T01501097  RH  017%=      5-min Rain = 0
KAD1 140023Z 21010KT 15/M10 A3019 RMK A01 T01491097  RH  017%=      5-min Rain = 0
KAD1 140024Z 21010KT 15/M10 A3019 RMK A01 T01481097  RH  017%=      5-min Rain = 0
KAD1 140025Z 21010KT 15/M10 A3019 RMK A01 T01461097  RH  018%=      5-min Rain = 0
KAD1 140026Z 22010KT 15/M10 A3019 RMK A01 T01461096  RH  018%=      5-min Rain = 0
KAD1 140027Z 22010KT 14/M10 A3019 RMK A01 T01441097  RH  018%=      5-min Rain = 0
KAD1 140028Z 22010KT 14/M10 A3019 RMK A01 T01431097  RH  018%=      5-min Rain = 0
KAD1 140029Z 22010KT 14/M10 A3019 RMK A01 T01421097  RH  018%=      5-min Rain = 0
KAD1 140030Z 22010KT 14/M10 A3019 RMK A01 T01411097  RH  018%=      5-min Rain = 0
KAD1 140031Z 22010KT 14/M10 A3019 RMK A01 T01391097  RH  018%=      5-min Rain = 0
KAD1 140032Z 21010KT 14/M10 A3019 RMK A01 T01381097  RH  019%=      5-min Rain = 0
KAD1 140033Z 21011KT 14/M10 A3019 RMK A01 T01371097  RH  019%=      5-min Rain = 0
KAD1 140034Z 21010KT 14/M10 A3019 RMK A01 T01371096  RH  019%=      5-min Rain = 0
KAD1 140035Z 21012KT 14/M10 A3019 RMK A01 T01371096  RH  019%=      5-min Rain = 0
KAD1 140036Z 21012KT 14/M10 A3019 RMK A01 T01371096  RH  019%=      5-min Rain = 0
KAD1 140037Z 21011KT 14/M10 A3019 RMK A01 T01371097  RH  019%=      5-min Rain = 0
KAD1 140038Z 21012KT 14/M10 A3019 RMK A01 T01361097  RH  019%=      5-min Rain = 0
KAD1 140039Z 21011KT 14/M10 A3019 RMK A01 T01361097  RH  019%=      5-min Rain = 0
KAD1 140040Z 21011KT 14/M10 A3019 RMK A01 T01371096  RH  019%=      5-min Rain = 0
KAD1 140041Z 21012KT 14/M10 A3019 RMK A01 T01361097  RH  019%=      5-min Rain = 0
KAD1 140042Z 21012KT 14/M10 A3019 RMK A01 T01351098  RH  019%=      5-min Rain = 0
KAD1 140043Z 21011KT 14/M10 A3019 RMK A01 T01351097  RH  019%=      5-min Rain = 0
KAD1 140044Z 21011KT 14/M10 A3019 RMK A01 T01351098  RH  019%=      5-min Rain = 0
KAD1 140045Z 21012KT 13/M10 A3019 RMK A01 T01331098  RH  019%=      5-min Rain = 0
KAD1 140046Z 21012KT 13/M10 A3019 RMK A01 T01331098  RH  019%=      5-min Rain = 0
KAD1 140047Z 20012KT 13/M10 A3019 RMK A01 T01321098  RH  019%=      5-min Rain = 0
KAD1 140048Z 20012KT 13/M10 A3019 RMK A01 T01321098  RH  019%=      5-min Rain = 0
KAD1 140049Z 20012KT 13/M10 A3019 RMK A01 T01321098  RH  019%=      5-min Rain = 0
KAD1 140050Z 20011KT 13/M10 A3019 RMK A01 T01311098  RH  019%=      5-min Rain = 0
KAD1 140051Z 20011KT 13/M10 A3019 RMK A01 T01301099  RH  019%=      5-min Rain = 0
KAD1 140052Z 20012KT 13/M10 A3019 RMK A01 T01291099  RH  019%=      5-min Rain = 0
KAD1 140053Z 20012KT 13/M10 A3019 RMK A01 T01281099  RH  020%=      5-min Rain = 0
KAD1 140054Z 20012KT 13/M10 A3019 RMK A01 T01271099  RH  020%=      5-min Rain = 0
KAD1 140055Z 20012KT 13/M10 A3019 RMK A01 T01271099  RH  020%=      5-min Rain = 0
KAD1 140056Z 20012KT 13/M10 A3019 RMK A01 T01281098  RH  020%=      5-min Rain = 0
KAD1 140057Z 20012KT 13/M10 A3019 RMK A01 T01291098  RH  020%=      5-min Rain = 0
KAD1 140058Z 20012KT 13/M10 A3019 RMK A01 T01281098  RH  020%=      5-min Rain = 0
KAD1 140059Z 20012KT 13/M10 A3019 RMK A01 T01281097  RH  020%=      5-min Rain = 0
KAD1 140100Z 20013KT 13/M10 A3019 RMK A01 T01281096  RH  020%=      5-min Rain = 0
KAD1 140101Z 20012KT 13/M10 A302 RMK A01 T01291095  RH  020%=      5-min Rain = 0
KAD1 140102Z 20012KT 13/M10 A302 RMK A01 T01291096  RH  020%=      5-min Rain = 0
KAD1 140103Z 20011KT 13/M10 A302 RMK A01 T01291096  RH  020%=      5-min Rain = 0
KAD1 140104Z 20011KT 13/M10 A302 RMK A01 T01281097  RH  020%=      5-min Rain = 0
KAD1 140105Z 20011KT 13/M10 A302 RMK A01 T01271097  RH  020%=      5-min Rain = 0
KAD1 140106Z 19011KT 13/M10 A302 RMK A01 T01261097  RH  020%=      5-min Rain = 0
KAD1 140107Z 20012KT 13/M10 A302 RMK A01 T01261096  RH  020%=      5-min Rain = 0
KAD1 140108Z 20012KT 13/M10 A302 RMK A01 T01261096  RH  020%=      5-min Rain = 0
KAD1 140109Z 20011KT 13/M10 A302 RMK A01 T01251096  RH  020%=      5-min Rain = 0
KAD1 140110Z 20012KT 13/M10 A302 RMK A01 T01251096  RH  021%=      5-min Rain = 0
KAD1 140111Z 20012KT 13/M10 A302 RMK A01 T01251095  RH  021%=      5-min Rain = 0
KAD1 140112Z 20011KT 12/M10 A302 RMK A01 T01241095  RH  021%=      5-min Rain = 0
KAD1 140113Z 19012KT 12/M10 A302 RMK A01 T01241095  RH  021%=      5-min Rain = 0
KAD1 140114Z 19012KT 12/M10 A302 RMK A01 T01231095  RH  021%=      5-min Rain = 0
KAD1 140115Z 19013KT 12/M10 A302 RMK A01 T01211096  RH  021%=      5-min Rain = 0
KAD1 140116Z 19013KT 12/M10 A302 RMK A01 T01191097  RH  021%=      5-min Rain = 0
KAD1 140117Z 18012KT 12/M10 A302 RMK A01 T01171096  RH  021%=      5-min Rain = 0
KAD1 140118Z 17011KT 12/M10 A302 RMK A01 T01161096  RH  022%=      5-min Rain = 0
KAD1 140119Z 17009KT 11/M10 A302 RMK A01 T01131098  RH  022%=      5-min Rain = 0
KAD1 140120Z 18011KT 11/M10 A302 RMK A01 T01091100  RH  022%=      5-min Rain = 0
KAD1 140121Z 18011KT 11/M10 A302 RMK A01 T01061099  RH  023%=      5-min Rain = 0
KAD1 140122Z 18011KT 11/M10 A302 RMK A01 T01061098  RH  023%=      5-min Rain = 0
KAD1 140123Z 18010KT 11/M10 A302 RMK A01 T01051098  RH  023%=      5-min Rain = 0
KAD1 140124Z 19010KT 11/M10 A302 RMK A01 T01051098  RH  023%=      5-min Rain = 0
KAD1 140125Z 18011KT 10/M10 A302 RMK A01 T01041097  RH  023%=      5-min Rain = 0
KAD1 140126Z 18011KT 10/M10 A302 RMK A01 T01031097  RH  023%=      5-min Rain = 0
KAD1 140127Z 18013KT 10/M10 A302 RMK A01 T01021097  RH  024%=      5-min Rain = 0
KAD1 140128Z 18013KT 10/M09 A302 RMK A01 T01021094  RH  024%=      5-min Rain = 0
KAD1 140129Z 19013KT 10/M09 A302 RMK A01 T01011092  RH  025%=      5-min Rain = 0
KAD1 140130Z 19013KT 10/M09 A302 RMK A01 T01021090  RH  025%=      5-min Rain = 0
KAD1 140131Z 19012KT 10/M09 A302 RMK A01 T01031088  RH  025%=      5-min Rain = 0
KAD1 140132Z 19012KT 10/M09 A302 RMK A01 T01031087  RH  025%=      5-min Rain = 0
KAD1 140133Z 19013KT 10/M09 A302 RMK A01 T01021086  RH  026%=      5-min Rain = 0
KAD1 140134Z 19014KT 10/M08 A302 RMK A01 T01021084  RH  026%=      5-min Rain = 0
KAD1 140135Z 19014KT 10/M08 A302 RMK A01 T01021080  RH  027%=      5-min Rain = 0
KAD1 140136Z 19014KT 10/M08 A302 RMK A01 T01031077  RH  027%=      5-min Rain = 0
KAD1 140137Z 18014KT 10/M08 A302 RMK A01 T01041077  RH  027%=      5-min Rain = 0
KAD1 140138Z 19014KT 10/M08 A302 RMK A01 T01041076  RH  027%=      5-min Rain = 0
KAD1 140139Z 19015KT 10/M08 A302 RMK A01 T01031075  RH  028%=      5-min Rain = 0
KAD1 140140Z 19015KT 10/M07 A302 RMK A01 T01031072  RH  028%=      5-min Rain = 0
KAD1 140141Z 19014KT 10/M07 A302 RMK A01 T01021071  RH  029%=      5-min Rain = 0
KAD1 140142Z 19014KT 10/M07 A302 RMK A01 T01011071  RH  029%=      5-min Rain = 0
KAD1 140143Z 19015KT 10/M07 A302 RMK A01 T01001070  RH  030%=      5-min Rain = 0
KAD1 140144Z 19015KT 10/M07 A302 RMK A01 T01001068  RH  030%=      5-min Rain = 0
KAD1 140145Z 19015KT 10/M07 A302 RMK A01 T01011066  RH  030%=      5-min Rain = 0
KAD1 140146Z 19015KT 10/M07 A302 RMK A01 T01011066  RH  030%=      5-min Rain = 0
KAD1 140147Z 19014KT 10/M07 A302 RMK A01 T01011065  RH  030%=      5-min Rain = 0
KAD1 140148Z 19015KT 10/M07 A302 RMK A01 T01001066  RH  030%=      5-min Rain = 0
KAD1 140149Z 19014KT 10/M07 A302 RMK A01 T00991065  RH  031%=      5-min Rain = 0
KAD1 140150Z 19014KT 10/M07 A302 RMK A01 T00991065  RH  031%=      5-min Rain = 0
KAD1 140151Z 19014KT 10/M06 A302 RMK A01 T00991064  RH  031%=      5-min Rain = 0
KAD1 140152Z 18014KT 10/M06 A302 RMK A01 T00981064  RH  031%=      5-min Rain = 0
KAD1 140153Z 18014KT 10/M07 A302 RMK A01 T00971065  RH  031%=      5-min Rain = 0
KAD1 140154Z 18013KT 10/M07 A302 RMK A01 T00961065  RH  031%=      5-min Rain = 0
KAD1 140155Z 18013KT 09/M07 A302 RMK A01 T00941066  RH  032%=      5-min Rain = 0
KAD1 140156Z 18013KT 09/M07 A302 RMK A01 T00931066  RH  032%=      5-min Rain = 0
KAD1 140157Z 18013KT 09/M07 A302 RMK A01 T00921066  RH  032%=      5-min Rain = 0
KAD1 140158Z 18013KT 09/M06 A302 RMK A01 T00911064  RH  033%=      5-min Rain = 0
KAD1 140159Z 19013KT 09/M06 A302 RMK A01 T00911064  RH  033%=      5-min Rain = 0
KAD1 140200Z 18013KT 09/M06 A302 RMK A01 T00911062  RH  033%=      5-min Rain = 0
KAD1 140201Z 18014KT 09/M06 A302 RMK A01 T00911062  RH  033%=      5-min Rain = 0
KAD1 140202Z 19014KT 09/M06 A302 RMK A01 T00921061  RH  033%=      5-min Rain = 0
KAD1 140203Z 19014KT 09/M06 A302 RMK A01 T00921060  RH  034%=      5-min Rain = 0
KAD1 140204Z 19014KT 09/M06 A302 RMK A01 T00921060  RH  034%=      5-min Rain = 0
KAD1 140205Z 19014KT 09/M06 A302 RMK A01 T00921059  RH  034%=      5-min Rain = 0
KAD1 140206Z 19013KT 09/M06 A302 RMK A01 T00921059  RH  034%=      5-min Rain = 0
KAD1 140207Z 19014KT 09/M06 A302 RMK A01 T00921059  RH  034%=      5-min Rain = 0
KAD1 140208Z 19014KT 09/M06 A302 RMK A01 T00911058  RH  034%=      5-min Rain = 0
KAD1 140209Z 19015KT 09/M06 A302 RMK A01 T00911057  RH  034%=      5-min Rain = 0
KAD1 140210Z 19015KT 09/M06 A302 RMK A01 T00921056  RH  035%=      5-min Rain = 0
KAD1 140211Z 19015KT 09/M06 A302 RMK A01 T00931055  RH  035%=      5-min Rain = 0
KAD1 140212Z 19014KT 09/M05 A302 RMK A01 T00941054  RH  035%=      5-min Rain = 0
KAD1 140213Z 19014KT 09/M05 A302 RMK A01 T00941054  RH  035%=      5-min Rain = 0
KAD1 140214Z 19014KT 09/M05 A302 RMK A01 T00941054  RH  035%=      5-min Rain = 0
KAD1 140215Z 19015KT 09/M05 A302 RMK A01 T00941054  RH  035%=      5-min Rain = 0
KAD1 140216Z 18015KT 09/M05 A302 RMK A01 T00941053  RH  035%=      5-min Rain = 0
KAD1 140217Z 18015KT 09/M05 A302 RMK A01 T00941053  RH  035%=      5-min Rain = 0
KAD1 140218Z 19014KT 09/M05 A302 RMK A01 T00941053  RH  035%=      5-min Rain = 0
KAD1 140219Z 18013KT 09/M05 A302 RMK A01 T00931054  RH  035%=      5-min Rain = 0
KAD1 140220Z 19015KT 09/M05 A302 RMK A01 T00921054  RH  035%=      5-min Rain = 0
KAD1 140221Z 19014KT 09/M05 A302 RMK A01 T00911054  RH  035%=      5-min Rain = 0
KAD1 140222Z 18012KT 09/M05 A302 RMK A01 T00901054  RH  036%=      5-min Rain = 0
KAD1 140223Z 18013KT 09/M05 A302 RMK A01 T00891054  RH  036%=      5-min Rain = 0
KAD1 140224Z 18013KT 09/M06 A302 RMK A01 T00881055  RH  036%=      5-min Rain = 0
KAD1 140225Z 18014KT 09/M06 A302 RMK A01 T00871055  RH  036%=      5-min Rain = 0
KAD1 140226Z 18014KT 09/M06 A302 RMK A01 T00861055  RH  036%=      5-min Rain = 0
KAD1 140227Z 18014KT 09/M06 A302 RMK A01 T00851055  RH  037%=      5-min Rain = 0
KAD1 140228Z 18014KT 09/M05 A302 RMK A01 T00851054  RH  037%=      5-min Rain = 0
KAD1 140229Z 19014KT 08/M05 A302 RMK A01 T00841053  RH  037%=      5-min Rain = 0
KAD1 140230Z 19015KT 09/M05 A302 RMK A01 T00861051  RH  038%=      5-min Rain = 0
KAD1 140231Z 19014KT 09/M05 A302 RMK A01 T00871050  RH  038%=      5-min Rain = 0
KAD1 140232Z 18015KT 09/M05 A302 RMK A01 T00871049  RH  038%=      5-min Rain = 0
KAD1 140233Z 18016KT 09/M05 A302 RMK A01 T00871049  RH  038%=      5-min Rain = 0
KAD1 140234Z 19015KT 09/M05 A302 RMK A01 T00881048  RH  038%=      5-min Rain = 0
KAD1 140235Z 18014KT 09/M05 A302 RMK A01 T00881048  RH  038%=      5-min Rain = 0
KAD1 140236Z 18015KT 09/M05 A302 RMK A01 T00891047  RH  038%=      5-min Rain = 0
KAD1 140237Z 18014KT 09/M05 A302 RMK A01 T00891047  RH  038%=      5-min Rain = 0
KAD1 140238Z 18014KT 09/M05 A302 RMK A01 T00891048  RH  038%=      5-min Rain = 0
KAD1 140239Z 18014KT 09/M05 A302 RMK A01 T00881048  RH  038%=      5-min Rain = 0
KAD1 140240Z 18015KT 09/M05 A302 RMK A01 T00871048  RH  038%=      5-min Rain = 0
KAD1 140241Z 18014KT 09/M05 A302 RMK A01 T00871048  RH  038%=      5-min Rain = 0
KAD1 140242Z 18013KT 09/M05 A302 RMK A01 T00861048  RH  038%=      5-min Rain = 0
KAD1 140243Z 18014KT 09/M05 A302 RMK A01 T00851049  RH  038%=      5-min Rain = 0
KAD1 140244Z 18014KT 08/M05 A302 RMK A01 T00841049  RH  039%=      5-min Rain = 0
KAD1 140245Z 18014KT 08/M05 A302 RMK A01 T00841048  RH  039%=      5-min Rain = 0
KAD1 140246Z 18014KT 08/M05 A302 RMK A01 T00831049  RH  039%=      5-min Rain = 0
KAD1 140247Z 18015KT 08/M05 A302 RMK A01 T00831048  RH  039%=      5-min Rain = 0
KAD1 140248Z 18015KT 08/M05 A302 RMK A01 T00821048  RH  039%=      5-min Rain = 0
KAD1 140249Z 18014KT 08/M05 A302 RMK A01 T00821048  RH  040%=      5-min Rain = 0
KAD1 140250Z 18014KT 08/M05 A302 RMK A01 T00821047  RH  040%=      5-min Rain = 0
KAD1 140251Z 18014KT 08/M05 A302 RMK A01 T00821048  RH  040%=      5-min Rain = 0
KAD1 140252Z 18015KT 08/M05 A302 RMK A01 T00801049  RH  040%=      5-min Rain = 0
KAD1 140253Z 18014KT 08/M05 A302 RMK A01 T00801048  RH  040%=      5-min Rain = 0
KAD1 140254Z 18014KT 08/M05 A302 RMK A01 T00801048  RH  040%=      5-min Rain = 0
KAD1 140255Z 18014KT 08/M05 A302 RMK A01 T00801047  RH  040%=      5-min Rain = 0
KAD1 140256Z 18014KT 08/M05 A302 RMK A01 T00791047  RH  040%=      5-min Rain = 0
KAD1 140257Z 18014KT 08/M05 A302 RMK A01 T00791047  RH  041%=      5-min Rain = 0
KAD1 140258Z 18015KT 08/M05 A302 RMK A01 T00791047  RH  041%=      5-min Rain = 0
KAD1 140259Z 18014KT 08/M05 A302 RMK A01 T00801046  RH  041%=      5-min Rain = 0
KAD1 140300Z 18015KT 08/M05 A302 RMK A01 T00801046  RH  041%=      5-min Rain = 0
KAD1 140301Z 18014KT 08/M05 A302 RMK A01 T00801046  RH  041%=      5-min Rain = 0
KAD1 140302Z 18014KT 08/M05 A302 RMK A01 T00801046  RH  041%=      5-min Rain = 0
KAD1 140303Z 18014KT 08/M05 A302 RMK A01 T00801045  RH  041%=      5-min Rain = 0
KAD1 140304Z 18014KT 08/M05 A302 RMK A01 T00801045  RH  041%=      5-min Rain = 0
KAD1 140305Z 18015KT 08/M05 A302 RMK A01 T00801045  RH  041%=      5-min Rain = 0
KAD1 140306Z 18014KT 08/M04 A302 RMK A01 T00801044  RH  041%=      5-min Rain = 0
KAD1 140307Z 18015KT 08/M04 A302 RMK A01 T00801044  RH  041%=      5-min Rain = 0
KAD1 140308Z 18014KT 08/M04 A302 RMK A01 T00801044  RH  041%=      5-min Rain = 0
KAD1 140309Z 18014KT 08/M05 A302 RMK A01 T00801045  RH  041%=      5-min Rain = 0
KAD1 140310Z 18014KT 08/M05 A302 RMK A01 T00791045  RH  041%=      5-min Rain = 0
KAD1 140311Z 18014KT 08/M04 A302 RMK A01 T00791044  RH  041%=      5-min Rain = 0
KAD1 140312Z 18014KT 08/M04 A302 RMK A01 T00791044  RH  041%=      5-min Rain = 0
KAD1 140313Z 18014KT 08/M04 A302 RMK A01 T00801044  RH  041%=      5-min Rain = 0
KAD1 140314Z 18015KT 08/M04 A302 RMK A01 T00791044  RH  041%=      5-min Rain = 0
KAD1 140315Z 18014KT 08/M04 A302 RMK A01 T00791044  RH  041%=      5-min Rain = 0
KAD1 140316Z 18014KT 08/M04 A302 RMK A01 T00791044  RH  042%=      5-min Rain = 0
KAD1 140317Z 18014KT 08/M04 A302 RMK A01 T00791044  RH  042%=      5-min Rain = 0
KAD1 140318Z 18015KT 08/M04 A302 RMK A01 T00781044  RH  042%=      5-min Rain = 0
KAD1 140319Z 18015KT 08/M04 A302 RMK A01 T00781044  RH  042%=      5-min Rain = 0
KAD1 140320Z 18014KT 08/M04 A302 RMK A01 T00791044  RH  042%=      5-min Rain = 0
KAD1 140321Z 18014KT 08/M04 A302 RMK A01 T00781044  RH  042%=      5-min Rain = 0
KAD1 140322Z 18014KT 08/M04 A302 RMK A01 T00771044  RH  042%=      5-min Rain = 0
KAD1 140323Z 18014KT 08/M05 A302 RMK A01 T00771045  RH  042%=      5-min Rain = 0
KAD1 140324Z 18014KT 08/M04 A302 RMK A01 T00771044  RH  042%=      5-min Rain = 0
KAD1 140325Z 18014KT 08/M05 A302 RMK A01 T00761045  RH  042%=      5-min Rain = 0
KAD1 140326Z 18014KT 08/M05 A3021 RMK A01 T00761045  RH  042%=      5-min Rain = 0
KAD1 140327Z 18014KT 08/M05 A3021 RMK A01 T00751045  RH  042%=      5-min Rain = 0
KAD1 140328Z 18015KT 08/M05 A3021 RMK A01 T00751045  RH  042%=      5-min Rain = 0
KAD1 140329Z 18014KT 08/M05 A302 RMK A01 T00751045  RH  042%=      5-min Rain = 0
KAD1 140330Z 18014KT 08/M05 A302 RMK A01 T00751045  RH  042%=      5-min Rain = 0
KAD1 140331Z 18013KT 07/M05 A302 RMK A01 T00741045  RH  042%=      5-min Rain = 0
KAD1 140332Z 18014KT 07/M05 A302 RMK A01 T00741045  RH  042%=      5-min Rain = 0
KAD1 140333Z 18014KT 07/M05 A302 RMK A01 T00741045  RH  043%=      5-min Rain = 0
KAD1 140334Z 18015KT 07/M05 A302 RMK A01 T00741045  RH  043%=      5-min Rain = 0
KAD1 140335Z 18014KT 07/M05 A302 RMK A01 T00741045  RH  043%=      5-min Rain = 0
KAD1 140336Z 18015KT 07/M05 A302 RMK A01 T00741045  RH  043%=      5-min Rain = 0
KAD1 140337Z 18016KT 07/M04 A3021 RMK A01 T00741044  RH  043%=      5-min Rain = 0
KAD1 140338Z 18015KT 07/M05 A3021 RMK A01 T00741045  RH  043%=      5-min Rain = 0
KAD1 140339Z 18016KT 07/M05 A3021 RMK A01 T00741045  RH  043%=      5-min Rain = 0
KAD1 140340Z 18015KT 07/M04 A3021 RMK A01 T00741044  RH  043%=      5-min Rain = 0
KAD1 140341Z 18015KT 07/M05 A3021 RMK A01 T00731045  RH  043%=      5-min Rain = 0
KAD1 140342Z 18016KT 07/M04 A302 RMK A01 T00731044  RH  043%=      5-min Rain = 0
KAD1 140343Z 18015KT 07/M04 A3021 RMK A01 T00731044  RH  043%=      5-min Rain = 0
KAD1 140344Z 18016KT 07/M04 A3021 RMK A01 T00731044  RH  043%=      5-min Rain = 0
KAD1 140345Z 19016KT 07/M04 A3021 RMK A01 T00731044  RH  043%=      5-min Rain = 0
KAD1 140346Z 19016KT 07/M04 A3021 RMK A01 T00731044  RH  043%=      5-min Rain = 0
KAD1 140347Z 19016KT 07/M04 A3021 RMK A01 T00731044  RH  043%=      5-min Rain = 0
KAD1 140348Z 18017KT 07/M04 A3021 RMK A01 T00731044  RH  043%=      5-min Rain = 0
KAD1 140349Z 18016KT 07/M04 A3021 RMK A01 T00731044  RH  043%=      5-min Rain = 0
KAD1 140350Z 18016KT 07/M04 A3021 RMK A01 T00721044  RH  043%=      5-min Rain = 0
KAD1 140351Z 18016KT 07/M04 A3021 RMK A01 T00731043  RH  044%=      5-min Rain = 0
KAD1 140352Z 18016KT 07/M04 A3021 RMK A01 T00721044  RH  044%=      5-min Rain = 0
KAD1 140353Z 18015KT 07/M04 A3021 RMK A01 T00721044  RH  044%=      5-min Rain = 0
KAD1 140354Z 18017KT 07/M04 A3021 RMK A01 T00721044  RH  044%=      5-min Rain = 0
KAD1 140355Z 18016KT 07/M04 A3021 RMK A01 T00721043  RH  044%=      5-min Rain = 0
KAD1 140356Z 18015KT 07/M04 A3021 RMK A01 T00711044  RH  044%=      5-min Rain = 0
KAD1 140357Z 18016KT 07/M04 A3021 RMK A01 T00711044  RH  044%=      5-min Rain = 0
KAD1 140358Z 18015KT 07/M04 A3021 RMK A01 T00711044  RH  044%=      5-min Rain = 0
KAD1 140359Z 18016KT 07/M04 A3021 RMK A01 T00711043  RH  044%=      5-min Rain = 0
KAD1 140400Z 18016KT 07/M04 A3021 RMK A01 T00711043  RH  044%=      5-min Rain = 0
KAD1 140401Z 18017KT 07/M04 A3021 RMK A01 T00711042  RH  044%=      5-min Rain = 0
KAD1 140402Z 19016KT 07/M04 A3021 RMK A01 T00731041  RH  044%=      5-min Rain = 0
KAD1 140403Z 19016KT 07/M04 A3021 RMK A01 T00741041  RH  044%=      5-min Rain = 0
KAD1 140404Z 19016KT 07/M04 A3021 RMK A01 T00731041  RH  044%=      5-min Rain = 0
KAD1 140405Z 19017KT 07/M04 A3021 RMK A01 T00741040  RH  044%=      5-min Rain = 0
KAD1 140406Z 19017KT 08/M04 A3021 RMK A01 T00751040  RH  044%=      5-min Rain = 0
KAD1 140407Z 19016KT 08/M04 A302 RMK A01 T00751040  RH  044%=      5-min Rain = 0
KAD1 140408Z 19018KT 08/M04 A302 RMK A01 T00761039  RH  044%=      5-min Rain = 0
KAD1 140409Z 19018KT 08/M04 A302 RMK A01 T00761039  RH  044%=      5-min Rain = 0
KAD1 140410Z 19017KT 08/M04 A302 RMK A01 T00771039  RH  044%=      5-min Rain = 0
KAD1 140411Z 19018KT 08/M04 A302 RMK A01 T00771039  RH  044%=      5-min Rain = 0
KAD1 140412Z 19018KT 08/M04 A302 RMK A01 T00771038  RH  044%=      5-min Rain = 0
KAD1 140413Z 19019KT 08/M04 A302 RMK A01 T00781038  RH  044%=      5-min Rain = 0
KAD1 140414Z 19018KT 08/M04 A302 RMK A01 T00781038  RH  044%=      5-min Rain = 0
KAD1 140415Z 19019KT 08/M04 A302 RMK A01 T00781038  RH  044%=      5-min Rain = 0
KAD1 140416Z 18018KT 08/M04 A302 RMK A01 T00781038  RH  044%=      5-min Rain = 0
KAD1 140417Z 19018KT 08/M04 A302 RMK A01 T00771038  RH  044%=      5-min Rain = 0
KAD1 140418Z 18018KT 08/M04 A302 RMK A01 T00771037  RH  044%=      5-min Rain = 0
KAD1 140419Z 19017KT 08/M04 A302 RMK A01 T00771038  RH  044%=      5-min Rain = 0
KAD1 140420Z 18018KT 08/M04 A302 RMK A01 T00781037  RH  044%=      5-min Rain = 0
KAD1 140421Z 18019KT 08/M04 A302 RMK A01 T00781037  RH  044%=      5-min Rain = 0
KAD1 140422Z 18018KT 08/M04 A302 RMK A01 T00781037  RH  044%=      5-min Rain = 0
KAD1 140423Z 19018KT 08/M04 A302 RMK A01 T00771037  RH  044%=      5-min Rain = 0
KAD1 140424Z 19018KT 08/M04 A302 RMK A01 T00771037  RH  044%=      5-min Rain = 0
KAD1 140425Z 18018KT 08/M04 A302 RMK A01 T00771037  RH  044%=      5-min Rain = 0
KAD1 140426Z 19018KT 08/M04 A3021 RMK A01 T00781036  RH  044%=      5-min Rain = 0
KAD1 140427Z 19018KT 08/M04 A3021 RMK A01 T00781036  RH  044%=      5-min Rain = 0
KAD1 140428Z 19017KT 08/M04 A3021 RMK A01 T00781036  RH  044%=      5-min Rain = 0
KAD1 140429Z 19018KT 08/M04 A302 RMK A01 T00781035  RH  045%=      5-min Rain = 0
KAD1 140430Z 19019KT 08/M04 A302 RMK A01 T00781035  RH  045%=      5-min Rain = 0
KAD1 140431Z 19020KT 08/M03 A302 RMK A01 T00791034  RH  045%=      5-min Rain = 0
KAD1 140432Z 19018KT 08/M03 A302 RMK A01 T00791034  RH  045%=      5-min Rain = 0
KAD1 140433Z 19019KT 08/M03 A302 RMK A01 T00801034  RH  045%=      5-min Rain = 0
KAD1 140434Z 19020KT 08/M03 A302 RMK A01 T00801033  RH  045%=      5-min Rain = 0
KAD1 140435Z 19019KT 08/M03 A302 RMK A01 T00801033  RH  045%=      5-min Rain = 0
KAD1 140436Z 19019KT 08/M03 A302 RMK A01 T00801033  RH  045%=      5-min Rain = 0
KAD1 140437Z 19019KT 08/M03 A302 RMK A01 T00801033  RH  045%=      5-min Rain = 0
KAD1 140438Z 19019KT 08/M03 A3021 RMK A01 T00801032  RH  045%=      5-min Rain = 0
KAD1 140439Z 19020KT 08/M03 A302 RMK A01 T00801032  RH  045%=      5-min Rain = 0
KAD1 140440Z 19018KT 08/M03 A302 RMK A01 T00801032  RH  045%=      5-min Rain = 0
KAD1 140441Z 19019KT 08/M03 A302 RMK A01 T00801032  RH  045%=      5-min Rain = 0
KAD1 140442Z 19019KT 08/M03 A302 RMK A01 T00801032  RH  045%=      5-min Rain = 0
KAD1 140443Z 19018KT 08/M03 A302 RMK A01 T00801032  RH  045%=      5-min Rain = 0
KAD1 140444Z 19019KT 08/M03 A3021 RMK A01 T00801031  RH  045%=      5-min Rain = 0
KAD1 140445Z 19019KT 08/M03 A302 RMK A01 T00811030  RH  045%=      5-min Rain = 0
KAD1 140446Z 19018KT 08/M03 A302 RMK A01 T00811030  RH  045%=      5-min Rain = 0
KAD1 140447Z 19017KT 08/M03 A302 RMK A01 T00821029  RH  045%=      5-min Rain = 0
KAD1 140448Z 19019KT 08/M03 A302 RMK A01 T00821029  RH  045%=      5-min Rain = 0
KAD1 140449Z 19018KT 08/M03 A302 RMK A01 T00821029  RH  046%=      5-min Rain = 0
KAD1 140450Z 19019KT 08/M03 A302 RMK A01 T00821029  RH  046%=      5-min Rain = 0
KAD1 140451Z 19019KT 08/M03 A302 RMK A01 T00821028  RH  046%=      5-min Rain = 0
KAD1 140452Z 19017KT 08/M03 A302 RMK A01 T00821028  RH  046%=      5-min Rain = 0
KAD1 140453Z 19019KT 08/M03 A302 RMK A01 T00831028  RH  046%=      5-min Rain = 0
KAD1 140454Z 19018KT 08/M03 A302 RMK A01 T00831027  RH  046%=      5-min Rain = 0
KAD1 140455Z 19018KT 08/M03 A302 RMK A01 T00831027  RH  046%=      5-min Rain = 0
KAD1 140456Z 19018KT 08/M03 A302 RMK A01 T00831027  RH  046%=      5-min Rain = 0
KAD1 140457Z 19018KT 08/M03 A302 RMK A01 T00831026  RH  046%=      5-min Rain = 0
KAD1 140458Z 19018KT 08/M03 A302 RMK A01 T00831027  RH  046%=      5-min Rain = 0
KAD1 140459Z 19018KT 08/M03 A302 RMK A01 T00831026  RH  046%=      5-min Rain = 0
KAD1 140500Z 19018KT 08/M03 A302 RMK A01 T00841026  RH  046%=      5-min Rain = 0
KAD1 140501Z 19018KT 08/M03 A302 RMK A01 T00841026  RH  046%=      5-min Rain = 0
KAD1 140502Z 19017KT 08/M03 A302 RMK A01 T00841026  RH  046%=      5-min Rain = 0
KAD1 140503Z 19017KT 08/M03 A302 RMK A01 T00841026  RH  046%=      5-min Rain = 0
KAD1 140504Z 19017KT 08/M03 A302 RMK A01 T00841025  RH  046%=      5-min Rain = 0
KAD1 140505Z 19017KT 08/M03 A302 RMK A01 T00841025  RH  046%=      5-min Rain = 0
KAD1 140506Z 19018KT 08/M03 A302 RMK A01 T00841025  RH  046%=      5-min Rain = 0
KAD1 140507Z 19018KT 09/M03 A302 RMK A01 T00851025  RH  046%=      5-min Rain = 0
KAD1 140508Z 20017KT 09/M02 A302 RMK A01 T00861024  RH  046%=      5-min Rain = 0
KAD1 140509Z 19017KT 09/M02 A302 RMK A01 T00851024  RH  046%=      5-min Rain = 0
KAD1 140510Z 19017KT 09/M02 A3021 RMK A01 T00851024  RH  046%=      5-min Rain = 0
KAD1 140511Z 19018KT 09/M02 A302 RMK A01 T00861024  RH  046%=      5-min Rain = 0
KAD1 140512Z 19019KT 09/M02 A302 RMK A01 T00851024  RH  046%=      5-min Rain = 0
KAD1 140513Z 20017KT 09/M02 A3021 RMK A01 T00861024  RH  046%=      5-min Rain = 0
KAD1 140514Z 20018G23KT 09/M02 A302 RMK A01 T00861023  RH  046%=      5-min Rain = 0
KAD1 140515Z 20019KT 09/M02 A3021 RMK A01 T00861023  RH  046%=      5-min Rain = 0
KAD1 140516Z 20019KT 09/M02 A3021 RMK A01 T00861023  RH  046%=      5-min Rain = 0
KAD1 140517Z 19019KT 09/M02 A302 RMK A01 T00871023  RH  046%=      5-min Rain = 0
KAD1 140518Z 20018KT 09/M02 A302 RMK A01 T00871023  RH  046%=      5-min Rain = 0
KAD1 140519Z 20017KT 09/M02 A302 RMK A01 T00861024  RH  046%=      5-min Rain = 0
KAD1 140520Z 19017KT 09/M02 A302 RMK A01 T00851024  RH  046%=      5-min Rain = 0
KAD1 140521Z 19018KT 09/M02 A302 RMK A01 T00851024  RH  046%=      5-min Rain = 0
KAD1 140522Z 19017KT 09/M02 A302 RMK A01 T00851023  RH  047%=      5-min Rain = 0
KAD1 140523Z 19018KT 09/M02 A302 RMK A01 T00851023  RH  047%=      5-min Rain = 0
KAD1 140524Z 19018KT 09/M02 A302 RMK A01 T00851023  RH  047%=      5-min Rain = 0
KAD1 140525Z 19017KT 09/M02 A302 RMK A01 T00851023  RH  047%=      5-min Rain = 0
KAD1 140526Z 20017KT 09/M02 A302 RMK A01 T00851023  RH  047%=      5-min Rain = 0
KAD1 140527Z 20017G23KT 09/M02 A302 RMK A01 T00851022  RH  047%=      5-min Rain = 0
KAD1 140528Z 20018KT 09/M02 A302 RMK A01 T00861021  RH  047%=      5-min Rain = 0
KAD1 140529Z 20016KT 09/M02 A302 RMK A01 T00861021  RH  047%=      5-min Rain = 0
KAD1 140530Z 20017KT 09/M02 A302 RMK A01 T00861021  RH  047%=      5-min Rain = 0
KAD1 140531Z 20019KT 09/M02 A302 RMK A01 T00861021  RH  047%=      5-min Rain = 0
KAD1 140532Z 20017KT 09/M02 A3021 RMK A01 T00861020  RH  047%=      5-min Rain = 0
KAD1 140533Z 20017KT 09/M02 A3021 RMK A01 T00861020  RH  047%=      5-min Rain = 0
KAD1 140534Z 20019KT 09/M02 A302 RMK A01 T00861020  RH  047%=      5-min Rain = 0
KAD1 140535Z 20018KT 09/M02 A302 RMK A01 T00871020  RH  047%=      5-min Rain = 0
KAD1 140536Z 20018KT 09/M02 A302 RMK A01 T00871019  RH  047%=      5-min Rain = 0
KAD1 140537Z 20018KT 09/M02 A302 RMK A01 T00871019  RH  047%=      5-min Rain = 0
KAD1 140538Z 20018KT 09/M02 A302 RMK A01 T00881019  RH  047%=      5-min Rain = 0
KAD1 140539Z 20018KT 09/M02 A302 RMK A01 T00881019  RH  047%=      5-min Rain = 0
KAD1 140540Z 20017G22KT 09/M02 A302 RMK A01 T00881018  RH  047%=      5-min Rain = 0
KAD1 140541Z 20019KT 09/M02 A302 RMK A01 T00881018  RH  047%=      5-min Rain = 0
KAD1 140542Z 20019KT 09/M02 A302 RMK A01 T00891017  RH  047%=      5-min Rain = 0
KAD1 140543Z 20018G23KT 09/M02 A302 RMK A01 T00891017  RH  047%=      5-min Rain = 0
KAD1 140544Z 20018G24KT 09/M02 A3021 RMK A01 T00901016  RH  047%=      5-min Rain = 0
KAD1 140545Z 20019KT 09/M02 A3021 RMK A01 T00901016  RH  047%=      5-min Rain = 0
KAD1 140546Z 20019KT 09/M02 A3021 RMK A01 T00911016  RH  047%=      5-min Rain = 0
KAD1 140547Z 20020KT 09/M02 A302 RMK A01 T00911015  RH  047%=      5-min Rain = 0
KAD1 140548Z 20019KT 09/M02 A302 RMK A01 T00911016  RH  047%=      5-min Rain = 0
KAD1 140549Z 20017KT 09/M02 A302 RMK A01 T00911015  RH  047%=      5-min Rain = 0
KAD1 140550Z 20019KT 09/M02 A302 RMK A01 T00921015  RH  047%=      5-min Rain = 0
KAD1 140551Z 20018KT 09/M02 A302 RMK A01 T00921015  RH  047%=      5-min Rain = 0
KAD1 140552Z 20019KT 09/M01 A302 RMK A01 T00921014  RH  047%=      5-min Rain = 0
KAD1 140553Z 20018KT 09/M01 A302 RMK A01 T00931014  RH  047%=      5-min Rain = 0
KAD1 140554Z 20016KT 09/M01 A302 RMK A01 T00931014  RH  047%=      5-min Rain = 0
KAD1 140555Z 20016KT 09/M01 A3021 RMK A01 T00921014  RH  047%=      5-min Rain = 0
KAD1 140556Z 20017G23KT 09/M02 A302 RMK A01 T00921015  RH  047%=      5-min Rain = 0
KAD1 140557Z 20018G23KT 09/M01 A302 RMK A01 T00911014  RH  048%=      5-min Rain = 0
KAD1 140558Z 20018KT 09/M01 A3021 RMK A01 T00921014  RH  048%=      5-min Rain = 0
KAD1 140559Z 20018KT 09/M01 A3021 RMK A01 T00921014  RH  048%=      5-min Rain = 0

Page generated in 0.0365 seconds.